Observation data for Throckmorton on 01/19/2019      Previous  Date  Next       Current Mesonet Observations  Soil Data  Daily Summary Page  Observations in Plain Language
KTH1 190600Z 33027G34KT 07/02 A299 RMK A01 T00650023  RH  074%=      5-min Rain = 0
KTH1 190601Z 32026G32KT 07/02 A299 RMK A01 T00650022  RH  074%=      5-min Rain = 0
KTH1 190602Z 33023G28KT 06/02 A299 RMK A01 T00640022  RH  074%=      5-min Rain = 0
KTH1 190603Z 32022G27KT 06/02 A299 RMK A01 T00640023  RH  075%=      5-min Rain = 0
KTH1 190604Z 32023G29KT 06/02 A2991 RMK A01 T00640023  RH  075%=      5-min Rain = 0
KTH1 190605Z 33018G24KT 06/02 A2991 RMK A01 T00640023  RH  075%=      5-min Rain = 0
KTH1 190606Z 33019G27KT 06/02 A2991 RMK A01 T00640022  RH  074%=      5-min Rain = 0
KTH1 190607Z 33017KT 06/02 A2991 RMK A01 T00640022  RH  074%=      5-min Rain = 0
KTH1 190608Z 32021KT 06/02 A2991 RMK A01 T00640021  RH  074%=      5-min Rain = 0
KTH1 190609Z 31022KT 06/02 A2991 RMK A01 T00640021  RH  074%=      5-min Rain = 0
KTH1 190610Z 32021G28KT 06/02 A2991 RMK A01 T00640021  RH  074%=      5-min Rain = 0
KTH1 190611Z 32022G28KT 06/02 A2991 RMK A01 T00640021  RH  074%=      5-min Rain = 0
KTH1 190612Z 33024G30KT 06/02 A2991 RMK A01 T00640020  RH  074%=      5-min Rain = 0
KTH1 190613Z 33024KT 06/02 A2991 RMK A01 T00640020  RH  073%=      5-min Rain = 0
KTH1 190614Z 33023G30KT 06/02 A2991 RMK A01 T00640019  RH  073%=      5-min Rain = 0
KTH1 190615Z 33024G33KT 06/02 A2991 RMK A01 T00630018  RH  073%=      5-min Rain = 0
KTH1 190616Z 33020G27KT 06/02 A2991 RMK A01 T00630018  RH  073%=      5-min Rain = 0
KTH1 190617Z 32020KT 06/02 A2992 RMK A01 T00630019  RH  073%=      5-min Rain = 0
KTH1 190618Z 33024G30KT 06/02 A2992 RMK A01 T00630018  RH  073%=      5-min Rain = 0
KTH1 190619Z 33024KT 06/02 A2992 RMK A01 T00620018  RH  073%=      5-min Rain = 0
KTH1 190620Z 32022KT 06/02 A2992 RMK A01 T00620017  RH  073%=      5-min Rain = 0
KTH1 190621Z 32024G30KT 06/02 A2992 RMK A01 T00620017  RH  073%=      5-min Rain = 0
KTH1 190622Z 32027G38KT 06/02 A2992 RMK A01 T00610017  RH  073%=      5-min Rain = 0
KTH1 190623Z 32024G31KT 06/02 A2992 RMK A01 T00600015  RH  073%=      5-min Rain = 0
KTH1 190624Z 32025G32KT 06/02 A2992 RMK A01 T00600016  RH  073%=      5-min Rain = 0
KTH1 190625Z 33022G28KT 06/02 A2992 RMK A01 T00600015  RH  073%=      5-min Rain = 0
KTH1 190626Z 33022G29KT 06/02 A2992 RMK A01 T00590015  RH  073%=      5-min Rain = 0
KTH1 190627Z 33022G27KT 06/02 A2993 RMK A01 T00590015  RH  073%=      5-min Rain = 0
KTH1 190628Z 33017KT 06/02 A2993 RMK A01 T00590016  RH  073%=      5-min Rain = 0
KTH1 190629Z 33019G24KT 06/02 A2993 RMK A01 T00590015  RH  073%=      5-min Rain = 0
KTH1 190630Z 33026KT 06/01 A2993 RMK A01 T00590014  RH  073%=      5-min Rain = 0
KTH1 190631Z 33021G26KT 06/01 A2993 RMK A01 T00580014  RH  073%=      5-min Rain = 0
KTH1 190632Z 34023G30KT 06/01 A2993 RMK A01 T00580013  RH  073%=      5-min Rain = 0
KTH1 190633Z 33020G26KT 06/01 A2993 RMK A01 T00590013  RH  073%=      5-min Rain = 0
KTH1 190634Z 34019G25KT 06/01 A2993 RMK A01 T00580014  RH  073%=      5-min Rain = 0
KTH1 190635Z 33023G30KT 06/01 A2993 RMK A01 T00580013  RH  073%=      5-min Rain = 0
KTH1 190636Z 32024G29KT 06/01 A2993 RMK A01 T00580013  RH  073%=      5-min Rain = 0
KTH1 190637Z 33024G30KT 06/01 A2993 RMK A01 T00580012  RH  073%=      5-min Rain = 0
KTH1 190638Z 32023G30KT 06/01 A2993 RMK A01 T00570012  RH  073%=      5-min Rain = 0
KTH1 190639Z 32021KT 06/01 A2993 RMK A01 T00570011  RH  073%=      5-min Rain = 0
KTH1 190640Z 33020G26KT 06/01 A2993 RMK A01 T00570012  RH  073%=      5-min Rain = 0
KTH1 190641Z 32021G28KT 06/01 A2993 RMK A01 T00560012  RH  073%=      5-min Rain = 0
KTH1 190642Z 33020G26KT 06/01 A2994 RMK A01 T00560011  RH  073%=      5-min Rain = 0
KTH1 190643Z 32024G29KT 06/01 A2993 RMK A01 T00560012  RH  073%=      5-min Rain = 0
KTH1 190644Z 32022G29KT 06/01 A2994 RMK A01 T00560011  RH  073%=      5-min Rain = 0
KTH1 190645Z 33024G31KT 06/01 A2993 RMK A01 T00560011  RH  073%=      5-min Rain = 0
KTH1 190646Z 33020G26KT 06/01 A2994 RMK A01 T00560009  RH  072%=      5-min Rain = 0
KTH1 190647Z 32020G27KT 06/01 A2994 RMK A01 T00560009  RH  072%=      5-min Rain = 0
KTH1 190648Z 34021G27KT 06/01 A2994 RMK A01 T00550009  RH  072%=      5-min Rain = 0
KTH1 190649Z 33021G26KT 06/01 A2994 RMK A01 T00550008  RH  072%=      5-min Rain = 0
KTH1 190650Z 33023G30KT 06/01 A2994 RMK A01 T00550008  RH  072%=      5-min Rain = 0
KTH1 190651Z 33025G36KT 05/01 A2994 RMK A01 T00540008  RH  072%=      5-min Rain = 0
KTH1 190652Z 33025G32KT 06/01 A2994 RMK A01 T00550007  RH  072%=      5-min Rain = 0
KTH1 190653Z 33021G29KT 05/01 A2994 RMK A01 T00540007  RH  072%=      5-min Rain = 0
KTH1 190654Z 34018G27KT 05/01 A2994 RMK A01 T00540008  RH  072%=      5-min Rain = 0
KTH1 190655Z 33021G28KT 05/01 A2994 RMK A01 T00540008  RH  073%=      5-min Rain = 0
KTH1 190656Z 34017G22KT 05/01 A2994 RMK A01 T00530008  RH  073%=      5-min Rain = 0
KTH1 190657Z 33016G22KT 05/01 A2995 RMK A01 T00530009  RH  073%=      5-min Rain = 0
KTH1 190658Z 33019G30KT 05/01 A2995 RMK A01 T00530010  RH  074%=      5-min Rain = 0
KTH1 190659Z 33023KT 05/01 A2995 RMK A01 T00520009  RH  074%=      5-min Rain = 0
KTH1 190700Z 33019G24KT 05/01 A2995 RMK A01 T00520008  RH  073%=      5-min Rain = 0
KTH1 190701Z 32021KT 05/01 A2995 RMK A01 T00510009  RH  074%=      5-min Rain = 0
KTH1 190702Z 33019KT 05/01 A2995 RMK A01 T00510009  RH  074%=      5-min Rain = 0
KTH1 190703Z 32016G22KT 05/01 A2995 RMK A01 T00510010  RH  075%=      5-min Rain = 0
KTH1 190704Z 33020G26KT 05/01 A2995 RMK A01 T00500011  RH  076%=      5-min Rain = 0
KTH1 190705Z 33024KT 05/01 A2995 RMK A01 T00500010  RH  075%=      5-min Rain = 0
KTH1 190706Z 33019KT 05/01 A2995 RMK A01 T00500010  RH  075%=      5-min Rain = 0
KTH1 190707Z 33016KT 05/01 A2995 RMK A01 T00500010  RH  075%=      5-min Rain = 0
KTH1 190708Z 33020G25KT 05/01 A2995 RMK A01 T00490010  RH  076%=      5-min Rain = 0
KTH1 190709Z 34022G31KT 05/01 A2995 RMK A01 T00490009  RH  075%=      5-min Rain = 0
KTH1 190710Z 33020G25KT 05/01 A2995 RMK A01 T00480008  RH  075%=      5-min Rain = 0
KTH1 190711Z 33018KT 05/01 A2995 RMK A01 T00480008  RH  075%=      5-min Rain = 0
KTH1 190712Z 34022G27KT 05/01 A2996 RMK A01 T00470007  RH  075%=      5-min Rain = 0
KTH1 190713Z 34017KT 05/01 A2996 RMK A01 T00470007  RH  075%=      5-min Rain = 0
KTH1 190714Z 33015KT 05/01 A2996 RMK A01 T00470009  RH  076%=      5-min Rain = 0
KTH1 190715Z 33012KT 05/01 A2996 RMK A01 T00460009  RH  077%=      5-min Rain = 0
KTH1 190716Z 34019G28KT 05/01 A2996 RMK A01 T00460010  RH  077%=      5-min Rain = 0
KTH1 190717Z 34017G22KT 05/01 A2996 RMK A01 T00460009  RH  077%=      5-min Rain = 0
KTH1 190718Z 33015G21KT 05/01 A2996 RMK A01 T00450009  RH  077%=      5-min Rain = 0
KTH1 190719Z 34013G18KT 05/01 A2996 RMK A01 T00450010  RH  078%=      5-min Rain = 0
KTH1 190720Z 34013G18KT 05/01 A2996 RMK A01 T00450011  RH  079%=      5-min Rain = 0
KTH1 190721Z 34015KT 05/01 A2996 RMK A01 T00450012  RH  079%=      5-min Rain = 0
KTH1 190722Z 33013G18KT 04/01 A2996 RMK A01 T00440013  RH  080%=      5-min Rain = 0
KTH1 190723Z 32013KT 04/01 A2996 RMK A01 T00440013  RH  080%=      5-min Rain = 0
KTH1 190724Z 32012KT 04/01 A2997 RMK A01 T00440014  RH  081%=      5-min Rain = 0
KTH1 190725Z 32018G24KT 04/01 A2996 RMK A01 T00430014  RH  081%=      5-min Rain = 0
KTH1 190726Z 33019G24KT 04/01 A2996 RMK A01 T00430010  RH  079%=      5-min Rain = 0
KTH1 190727Z 32018G23KT 04/01 A2996 RMK A01 T00440011  RH  079%=      5-min Rain = 0
KTH1 190728Z 32020G25KT 04/01 A2996 RMK A01 T00430009  RH  079%=      5-min Rain = 0
KTH1 190729Z 33017G24KT 04/01 A2996 RMK A01 T00430008  RH  078%=      5-min Rain = 0
KTH1 190730Z 33017KT 04/01 A2997 RMK A01 T00430008  RH  078%=      5-min Rain = 0
KTH1 190731Z 33017G23KT 04/01 A2997 RMK A01 T00430009  RH  078%=      5-min Rain = 0
KTH1 190732Z 33019G26KT 04/01 A2997 RMK A01 T00430008  RH  078%=      5-min Rain = 0
KTH1 190733Z 33022G27KT 04/01 A2997 RMK A01 T00430005  RH  077%=      5-min Rain = 0
KTH1 190734Z 33023G32KT 04/00 A2997 RMK A01 T00420003  RH  076%=      5-min Rain = 0
KTH1 190735Z 33023G32KT 04/00 A2997 RMK A01 T00410000  RH  075%=      5-min Rain = 0
KTH1 190736Z 34023G31KT 04/M00 A2997 RMK A01 T00401001  RH  075%=      5-min Rain = 0
KTH1 190737Z 34025G35KT 04/M00 A2997 RMK A01 T00391001  RH  075%=      5-min Rain = 0
KTH1 190738Z 34024G32KT 04/M00 A2997 RMK A01 T00381001  RH  076%=      5-min Rain = 0
KTH1 190739Z 34024G36KT 04/00 A2997 RMK A01 T00380000  RH  077%=      5-min Rain = 0
KTH1 190740Z 34022G31KT 04/00 A2997 RMK A01 T003700-0  RH  077%=      5-min Rain = 0
KTH1 190741Z 34020G27KT 04/00 A2997 RMK A01 T00360000  RH  077%=      5-min Rain = 0
KTH1 190742Z 34021G29KT 04/00 A2998 RMK A01 T00350000  RH  078%=      5-min Rain = 0
KTH1 190743Z 34020G29KT 04/00 A2998 RMK A01 T00350000  RH  078%=      5-min Rain = 0
KTH1 190744Z 34019G29KT 04/00 A2998 RMK A01 T00350001  RH  079%=      5-min Rain = 0
KTH1 190745Z 34019G24KT 03/00 A2998 RMK A01 T00340001  RH  079%=      5-min Rain = 0
KTH1 190746Z 35019G27KT 03/00 A2998 RMK A01 T00340002  RH  080%=      5-min Rain = 0
KTH1 190747Z 34019G25KT 03/00 A2998 RMK A01 T00330002  RH  080%=      5-min Rain = 0
KTH1 190748Z 33020G26KT 03/00 A2998 RMK A01 T00330003  RH  081%=      5-min Rain = 0
KTH1 190749Z 33021G27KT 03/00 A2998 RMK A01 T00320004  RH  082%=      5-min Rain = 0
KTH1 190750Z 34025G32KT 03/01 A2998 RMK A01 T00320005  RH  083%=      5-min Rain = 0
KTH1 190751Z 34023G28KT 03/01 A2998 RMK A01 T00310005  RH  083%=      5-min Rain = 0
KTH1 190752Z 34021G29KT 03/01 A2999 RMK A01 T00300006  RH  084%=      5-min Rain = 0
KTH1 190753Z 34024G31KT 03/01 A2998 RMK A01 T00300006  RH  085%=      5-min Rain = 0
KTH1 190754Z 34021G29KT 03/01 A2999 RMK A01 T00290006  RH  085%=      5-min Rain = 0
KTH1 190755Z 34019G26KT 03/01 A2999 RMK A01 T00290007  RH  086%=      5-min Rain = 0
KTH1 190756Z 34018G23KT 03/01 A2999 RMK A01 T00280007  RH  086%=      5-min Rain = 0
KTH1 190757Z 34019G24KT 03/01 A2999 RMK A01 T00270007  RH  087%=      5-min Rain = 0
KTH1 190758Z 34015G21KT 03/01 A2999 RMK A01 T00270008  RH  088%=      5-min Rain = 0
KTH1 190759Z 33019G24KT 03/01 A2999 RMK A01 T00260009  RH  088%=      5-min Rain = 0
KTH1 190800Z 33018KT 03/01 A2999 RMK A01 T00260008  RH  088%=      5-min Rain = 0
KTH1 190801Z 33017KT 03/01 A2999 RMK A01 T00260009  RH  089%=      5-min Rain = 0
KTH1 190802Z 33018KT 03/01 A2999 RMK A01 T00260010  RH  089%=      5-min Rain = 0
KTH1 190803Z 32022G29KT 03/01 A2999 RMK A01 T00260010  RH  090%=      5-min Rain = 0
KTH1 190804Z 33023KT 03/01 A2999 RMK A01 T00250009  RH  089%=      5-min Rain = 0
KTH1 190805Z 33021G27KT 02/01 A2999 RMK A01 T00240008  RH  089%=      5-min Rain = 0
KTH1 190806Z 33022G27KT 02/01 A2999 RMK A01 T00230008  RH  090%=      5-min Rain = 0
KTH1 190807Z 33020G25KT 02/01 A2999 RMK A01 T00220008  RH  090%=      5-min Rain = 0
KTH1 190808Z 33019G24KT 02/01 A2999 RMK A01 T00220008  RH  090%=      5-min Rain = 0
KTH1 190809Z 33022G28KT 02/01 A2999 RMK A01 T00220008  RH  091%=      5-min Rain = 0
KTH1 190810Z 33024G29KT 02/01 A2999 RMK A01 T00220008  RH  091%=      5-min Rain = 0
KTH1 190811Z 33020G25KT 02/01 A30 RMK A01 T00210007  RH  090%=      5-min Rain = 0
KTH1 190812Z 33019G25KT 02/01 A30 RMK A01 T00210008  RH  091%=      5-min Rain = 0
KTH1 190813Z 33021G28KT 02/01 A30 RMK A01 T00210008  RH  091%=      5-min Rain = 0
KTH1 190814Z 33024G29KT 02/01 A30 RMK A01 T00200007  RH  091%=      5-min Rain = 0
KTH1 190815Z 33018KT 02/01 A30 RMK A01 T00180005  RH  091%=      5-min Rain = 0
KTH1 190816Z 33022G27KT 02/01 A30 RMK A01 T00180006  RH  092%=      5-min Rain = 0
KTH1 190817Z 33020G27KT 02/01 A30 RMK A01 T00170005  RH  092%=      5-min Rain = 0
KTH1 190818Z 34018KT 02/01 A30 RMK A01 T00170005  RH  092%=      5-min Rain = 0
KTH1 190819Z 33024KT 02/01 A30 RMK A01 T00160005  RH  092%=      5-min Rain = 0
KTH1 190820Z 33019KT 02/01 A30 RMK A01 T00160005  RH  092%=      5-min Rain = 0
KTH1 190821Z 33022G29KT 02/01 A30 RMK A01 T00160005  RH  093%=      5-min Rain = 0
KTH1 190822Z 33020G26KT 02/01 A30 RMK A01 T00160005  RH  093%=      5-min Rain = 0
KTH1 190823Z 33016KT 02/01 A30 RMK A01 T00160005  RH  093%=      5-min Rain = 0
KTH1 190824Z 33017KT 02/01 A30 RMK A01 T00160006  RH  093%=      5-min Rain = 0
KTH1 190825Z 33017KT 02/01 A30 RMK A01 T00160006  RH  093%=      5-min Rain = 0
KTH1 190826Z 33017G23KT 02/01 A30 RMK A01 T00160006  RH  093%=      5-min Rain = 0
KTH1 190827Z 33014KT 02/01 A30 RMK A01 T00160006  RH  093%=      5-min Rain = 0
KTH1 190828Z 33017G25KT 02/01 A30 RMK A01 T00170007  RH  093%=      5-min Rain = 0
KTH1 190829Z 32015KT 02/01 A30 RMK A01 T00170007  RH  093%=      5-min Rain = 0
KTH1 190830Z 32016KT 02/01 A30 RMK A01 T00180007  RH  093%=      5-min Rain = 0
KTH1 190831Z 33017KT 02/01 A30 RMK A01 T00180007  RH  093%=      5-min Rain = 0
KTH1 190832Z 33018G23KT 02/01 A30 RMK A01 T00190007  RH  092%=      5-min Rain = 0
KTH1 190833Z 33015KT 02/01 A30 RMK A01 T00190007  RH  092%=      5-min Rain = 0
KTH1 190834Z 32014KT 02/01 A30 RMK A01 T00200008  RH  092%=      5-min Rain = 0
KTH1 190835Z 32017G22KT 02/01 A3001 RMK A01 T00200008  RH  092%=      5-min Rain = 0
KTH1 190836Z 33017KT 02/01 A3001 RMK A01 T00200008  RH  092%=      5-min Rain = 0
KTH1 190837Z 33016G21KT 02/01 A3001 RMK A01 T00210009  RH  092%=      5-min Rain = 0
KTH1 190838Z 33018G24KT 02/01 A3001 RMK A01 T00220009  RH  091%=      5-min Rain = 0
KTH1 190839Z 33015KT 02/01 A3001 RMK A01 T00220008  RH  091%=      5-min Rain = 0
KTH1 190840Z 33014KT 02/01 A3001 RMK A01 T00220008  RH  091%=      5-min Rain = 0
KTH1 190841Z 33015KT 02/01 A3001 RMK A01 T00220009  RH  091%=      5-min Rain = 0
KTH1 190842Z 33019KT 02/01 A3001 RMK A01 T00230010  RH  091%=      5-min Rain = 0
KTH1 190843Z 33018G25KT 02/01 A3001 RMK A01 T00230009  RH  090%=      5-min Rain = 0
KTH1 190844Z 33016G24KT 02/01 A3001 RMK A01 T00230008  RH  090%=      5-min Rain = 0
KTH1 190845Z 32017G22KT 02/01 A3001 RMK A01 T00240009  RH  090%=      5-min Rain = 0
KTH1 190846Z 33015KT 02/01 A3001 RMK A01 T00240009  RH  090%=      5-min Rain = 0
KTH1 190847Z 34013G19KT 02/01 A3001 RMK A01 T00240010  RH  090%=      5-min Rain = 0
KTH1 190848Z 33015KT 03/01 A3001 RMK A01 T00250010  RH  090%=      5-min Rain = 0
KTH1 190849Z 32016G22KT 03/01 A3002 RMK A01 T00250010  RH  090%=      5-min Rain = 0
KTH1 190850Z 33016G21KT 03/01 A3002 RMK A01 T00250010  RH  090%=      5-min Rain = 0
KTH1 190851Z 33016KT 03/01 A3002 RMK A01 T00250010  RH  090%=      5-min Rain = 0
KTH1 190852Z 34018KT 03/01 A3002 RMK A01 T00250010  RH  090%=      5-min Rain = 0
KTH1 190853Z 33017G22KT 03/01 A3002 RMK A01 T00250009  RH  089%=      5-min Rain = 0
KTH1 190854Z 33014KT 03/01 A3002 RMK A01 T00250009  RH  089%=      5-min Rain = 0
KTH1 190855Z 32017KT 03/01 A3002 RMK A01 T00250010  RH  089%=      5-min Rain = 0
KTH1 190856Z 33015KT 03/01 A3002 RMK A01 T00250010  RH  090%=      5-min Rain = 0
KTH1 190857Z 33013G20KT 03/01 A3002 RMK A01 T00250010  RH  090%=      5-min Rain = 0
KTH1 190858Z 32017G22KT 03/01 A3002 RMK A01 T00250010  RH  090%=      5-min Rain = 0
KTH1 190859Z 33018G24KT 03/01 A3002 RMK A01 T00250009  RH  089%=      5-min Rain = 0
KTH1 190900Z 33018KT 03/01 A3002 RMK A01 T00250009  RH  089%=      5-min Rain = 0
KTH1 190901Z 32015G21KT 03/01 A3002 RMK A01 T00250009  RH  089%=      5-min Rain = 0
KTH1 190902Z 32015G20KT 03/01 A3003 RMK A01 T00250009  RH  089%=      5-min Rain = 0
KTH1 190903Z 33017G24KT 03/01 A3003 RMK A01 T00250008  RH  088%=      5-min Rain = 0
KTH1 190904Z 33023G29KT 03/00 A3003 RMK A01 T00250004  RH  086%=      5-min Rain = 0
KTH1 190905Z 32023G28KT 02/00 A3002 RMK A01 T00240001  RH  085%=      5-min Rain = 0
KTH1 190906Z 32024KT 02/00 A3002 RMK A01 T002300-0  RH  085%=      5-min Rain = 0
KTH1 190907Z 32022G27KT 02/M00 A3003 RMK A01 T00221001  RH  085%=      5-min Rain = 0
KTH1 190908Z 33024G30KT 02/M00 A3003 RMK A01 T00221001  RH  085%=      5-min Rain = 0
KTH1 190909Z 33023G33KT 02/M00 A3003 RMK A01 T00201002  RH  085%=      5-min Rain = 0
KTH1 190910Z 32024KT 02/M00 A3003 RMK A01 T00201001  RH  086%=      5-min Rain = 0
KTH1 190911Z 32024G32KT 02/00 A3003 RMK A01 T001800-0  RH  087%=      5-min Rain = 0
KTH1 190912Z 33022G29KT 02/00 A3003 RMK A01 T00180000  RH  088%=      5-min Rain = 0
KTH1 190913Z 33023G28KT 02/00 A3004 RMK A01 T00170001  RH  089%=      5-min Rain = 0
KTH1 190914Z 33027G33KT 02/00 A3004 RMK A01 T00160001  RH  089%=      5-min Rain = 0
KTH1 190915Z 34021G26KT 02/M00 A3004 RMK A01 T00151001  RH  089%=      5-min Rain = 0
KTH1 190916Z 33024G32KT 02/M00 A3004 RMK A01 T00151002  RH  089%=      5-min Rain = 0
KTH1 190917Z 33022G28KT 01/M00 A3004 RMK A01 T00141002  RH  089%=      5-min Rain = 0
KTH1 190918Z 34019G28KT 01/M00 A3004 RMK A01 T00141002  RH  089%=      5-min Rain = 0
KTH1 190919Z 34021G27KT 01/M00 A3004 RMK A01 T00141002  RH  089%=      5-min Rain = 0
KTH1 190920Z 34019G27KT 01/M00 A3004 RMK A01 T00141003  RH  089%=      5-min Rain = 0
KTH1 190921Z 34021G26KT 01/M00 A3004 RMK A01 T00131003  RH  089%=      5-min Rain = 0
KTH1 190922Z 34018G23KT 01/M00 A3004 RMK A01 T00131002  RH  089%=      5-min Rain = 0
KTH1 190923Z 34024G29KT 01/M00 A3005 RMK A01 T00131002  RH  090%=      5-min Rain = 0
KTH1 190924Z 33017G24KT 01/M00 A3005 RMK A01 T00131002  RH  090%=      5-min Rain = 0
KTH1 190925Z 33019G25KT 01/M00 A3005 RMK A01 T00131001  RH  090%=      5-min Rain = 0
KTH1 190926Z 33019KT 01/M00 A3005 RMK A01 T00131001  RH  090%=      5-min Rain = 0
KTH1 190927Z 33019G24KT 01/M00 A3004 RMK A01 T00131001  RH  090%=      5-min Rain = 0
KTH1 190928Z 33019G25KT 01/M00 A3005 RMK A01 T00141001  RH  090%=      5-min Rain = 0
KTH1 190929Z 33018KT 01/M00 A3005 RMK A01 T00141001  RH  090%=      5-min Rain = 0
KTH1 190930Z 33019G28KT 01/M00 A3005 RMK A01 T00131002  RH  090%=      5-min Rain = 0
KTH1 190931Z 33018G23KT 01/M00 A3005 RMK A01 T00131002  RH  090%=      5-min Rain = 0
KTH1 190932Z 33017G22KT 01/M00 A3005 RMK A01 T00131001  RH  091%=      5-min Rain = 0
KTH1 190933Z 33019G24KT 01/M00 A3005 RMK A01 T00131001  RH  091%=      5-min Rain = 0
KTH1 190934Z 33016G22KT 01/00 A3005 RMK A01 T001300-0  RH  091%=      5-min Rain = 0
KTH1 190935Z 32019KT 01/00 A3005 RMK A01 T001300-0  RH  091%=      5-min Rain = 0
KTH1 190936Z 33017KT 01/M00 A3005 RMK A01 T00121001  RH  091%=      5-min Rain = 0
KTH1 190937Z 33015KT 01/M00 A3005 RMK A01 T00121001  RH  091%=      5-min Rain = 0
KTH1 190938Z 33018G24KT 01/00 A3005 RMK A01 T00130000  RH  091%=      5-min Rain = 0
KTH1 190939Z 33020G25KT 01/M00 A3005 RMK A01 T00131001  RH  091%=      5-min Rain = 0
KTH1 190940Z 33017G22KT 01/M00 A3005 RMK A01 T00121003  RH  090%=      5-min Rain = 0
KTH1 190941Z 33015G20KT 01/M00 A3005 RMK A01 T00121003  RH  090%=      5-min Rain = 0
KTH1 190942Z 32017G23KT 01/M00 A3005 RMK A01 T00121003  RH  089%=      5-min Rain = 0
KTH1 190943Z 34018KT 01/M00 A3005 RMK A01 T00121004  RH  089%=      5-min Rain = 0
KTH1 190944Z 33015G22KT 01/M00 A3005 RMK A01 T00121004  RH  089%=      5-min Rain = 0
KTH1 190945Z 33016KT 01/M00 A3005 RMK A01 T00121004  RH  089%=      5-min Rain = 0
KTH1 190946Z 33018G23KT 01/M00 A3005 RMK A01 T00121004  RH  089%=      5-min Rain = 0
KTH1 190947Z 33015G21KT 01/M00 A3005 RMK A01 T00121004  RH  089%=      5-min Rain = 0
KTH1 190948Z 33016KT 01/M00 A3005 RMK A01 T00131004  RH  089%=      5-min Rain = 0
KTH1 190949Z 33014G20KT 01/M00 A3006 RMK A01 T00131004  RH  088%=      5-min Rain = 0
KTH1 190950Z 33017KT 01/M01 A3006 RMK A01 T00121005  RH  088%=      5-min Rain = 0
KTH1 190951Z 33019G24KT 01/M01 A3006 RMK A01 T00121006  RH  088%=      5-min Rain = 0
KTH1 190952Z 33017G22KT 01/M01 A3006 RMK A01 T00131006  RH  087%=      5-min Rain = 0
KTH1 190953Z 33017G22KT 01/M01 A3006 RMK A01 T00131007  RH  087%=      5-min Rain = 0
KTH1 190954Z 33017G23KT 01/M01 A3006 RMK A01 T00131006  RH  087%=      5-min Rain = 0
KTH1 190955Z 32016KT 01/M01 A3006 RMK A01 T00131006  RH  087%=      5-min Rain = 0
KTH1 190956Z 32018G23KT 01/M01 A3006 RMK A01 T00131005  RH  087%=      5-min Rain = 0
KTH1 190957Z 33017G22KT 01/M01 A3006 RMK A01 T00131006  RH  087%=      5-min Rain = 0
KTH1 190958Z 33017G22KT 01/M01 A3006 RMK A01 T00131007  RH  087%=      5-min Rain = 0
KTH1 190959Z 33017KT 01/M01 A3006 RMK A01 T00131008  RH  086%=      5-min Rain = 0
KTH1 191000Z 33015KT 01/M01 A3006 RMK A01 T00141007  RH  086%=      5-min Rain = 0
KTH1 191001Z 32016G23KT 01/M01 A3006 RMK A01 T00141007  RH  086%=      5-min Rain = 0
KTH1 191002Z 33015G21KT 01/M01 A3006 RMK A01 T00141006  RH  086%=      5-min Rain = 0
KTH1 191003Z 33018G26KT 02/M01 A3006 RMK A01 T00151007  RH  086%=      5-min Rain = 0
KTH1 191004Z 33017KT 02/M01 A3007 RMK A01 T00151009  RH  085%=      5-min Rain = 0
KTH1 191005Z 33018KT 02/M01 A3007 RMK A01 T00151009  RH  084%=      5-min Rain = 0
KTH1 191006Z 33017KT 02/M01 A3007 RMK A01 T00151009  RH  084%=      5-min Rain = 0
KTH1 191007Z 33014KT 02/M01 A3007 RMK A01 T00151009  RH  084%=      5-min Rain = 0
KTH1 191008Z 33014G19KT 02/M01 A3007 RMK A01 T00151009  RH  084%=      5-min Rain = 0
KTH1 191009Z 33016KT 02/M01 A3007 RMK A01 T00161009  RH  084%=      5-min Rain = 0
KTH1 191010Z 33020G25KT 02/M01 A3007 RMK A01 T00161010  RH  083%=      5-min Rain = 0
KTH1 191011Z 33017KT 02/M01 A3007 RMK A01 T00161012  RH  082%=      5-min Rain = 0
KTH1 191012Z 33017KT 02/M01 A3007 RMK A01 T00171012  RH  081%=      5-min Rain = 0
KTH1 191013Z 33015KT 02/M01 A3007 RMK A01 T00171012  RH  081%=      5-min Rain = 0
KTH1 191014Z 32017G24KT 02/M01 A3007 RMK A01 T00171011  RH  082%=      5-min Rain = 0
KTH1 191015Z 32018G23KT 02/M01 A3007 RMK A01 T00171013  RH  080%=      5-min Rain = 0
KTH1 191016Z 33019G24KT 02/M02 A3007 RMK A01 T00171015  RH  079%=      5-min Rain = 0
KTH1 191017Z 32015KT 02/M01 A3007 RMK A01 T00171014  RH  079%=      5-min Rain = 0
KTH1 191018Z 33018G26KT 02/M02 A3007 RMK A01 T00171015  RH  079%=      5-min Rain = 0
KTH1 191019Z 33016G23KT 02/M01 A3007 RMK A01 T00181014  RH  079%=      5-min Rain = 0
KTH1 191020Z 33016G21KT 02/M02 A3007 RMK A01 T00181015  RH  079%=      5-min Rain = 0
KTH1 191021Z 33015KT 02/M01 A3007 RMK A01 T00181014  RH  079%=      5-min Rain = 0
KTH1 191022Z 32016KT 02/M01 A3007 RMK A01 T00181014  RH  079%=      5-min Rain = 0
KTH1 191023Z 33018KT 02/M02 A3007 RMK A01 T00181015  RH  079%=      5-min Rain = 0
KTH1 191024Z 33016KT 02/M02 A3007 RMK A01 T00181015  RH  079%=      5-min Rain = 0
KTH1 191025Z 33018G24KT 02/M02 A3008 RMK A01 T00181015  RH  079%=      5-min Rain = 0
KTH1 191026Z 33018G23KT 02/M02 A3008 RMK A01 T00191016  RH  078%=      5-min Rain = 0
KTH1 191027Z 33016KT 02/M02 A3008 RMK A01 T00191016  RH  078%=      5-min Rain = 0
KTH1 191028Z 32015KT 02/M02 A3008 RMK A01 T00191016  RH  077%=      5-min Rain = 0
KTH1 191029Z 33016G23KT 02/M02 A3008 RMK A01 T00201015  RH  078%=      5-min Rain = 0
KTH1 191030Z 33016G21KT 02/M02 A3008 RMK A01 T00201016  RH  077%=      5-min Rain = 0
KTH1 191031Z 33016G21KT 02/M02 A3008 RMK A01 T00201017  RH  077%=      5-min Rain = 0
KTH1 191032Z 33016G22KT 02/M02 A3008 RMK A01 T00201017  RH  076%=      5-min Rain = 0
KTH1 191033Z 33018G24KT 02/M02 A3008 RMK A01 T00201017  RH  076%=      5-min Rain = 0
KTH1 191034Z 33013KT 02/M02 A3009 RMK A01 T00201017  RH  076%=      5-min Rain = 0
KTH1 191035Z 33013KT 02/M02 A3009 RMK A01 T00201015  RH  077%=      5-min Rain = 0
KTH1 191036Z 33013G19KT 02/M02 A3009 RMK A01 T00201015  RH  077%=      5-min Rain = 0
KTH1 191037Z 32015G21KT 02/M02 A3009 RMK A01 T00201015  RH  077%=      5-min Rain = 0
KTH1 191038Z 33020KT 02/M02 A3009 RMK A01 T00201016  RH  077%=      5-min Rain = 0
KTH1 191039Z 33015KT 02/M02 A3009 RMK A01 T00201018  RH  076%=      5-min Rain = 0
KTH1 191040Z 32012KT 02/M02 A3009 RMK A01 T00211017  RH  076%=      5-min Rain = 0
KTH1 191041Z 33014G19KT 02/M02 A3009 RMK A01 T00211016  RH  077%=      5-min Rain = 0
KTH1 191042Z 33015G22KT 02/M02 A3009 RMK A01 T00211016  RH  076%=      5-min Rain = 0
KTH1 191043Z 33017KT 02/M02 A3009 RMK A01 T00201018  RH  076%=      5-min Rain = 0
KTH1 191044Z 34018KT 02/M02 A3009 RMK A01 T00201018  RH  076%=      5-min Rain = 0
KTH1 191045Z 33013KT 02/M02 A3009 RMK A01 T00201019  RH  075%=      5-min Rain = 0
KTH1 191046Z 33017KT 02/M02 A3009 RMK A01 T00201018  RH  076%=      5-min Rain = 0
KTH1 191047Z 33017G22KT 02/M02 A3009 RMK A01 T00201018  RH  076%=      5-min Rain = 0
KTH1 191048Z 33015KT 02/M02 A3009 RMK A01 T00201017  RH  076%=      5-min Rain = 0
KTH1 191049Z 34013KT 02/M02 A3009 RMK A01 T00201017  RH  076%=      5-min Rain = 0
KTH1 191050Z 33013G18KT 02/M02 A3009 RMK A01 T00201018  RH  076%=      5-min Rain = 0
KTH1 191051Z 33013KT 02/M02 A3009 RMK A01 T00201016  RH  077%=      5-min Rain = 0
KTH1 191052Z 33013KT 02/M02 A3009 RMK A01 T00201016  RH  077%=      5-min Rain = 0
KTH1 191053Z 33016G21KT 02/M02 A3009 RMK A01 T00201017  RH  076%=      5-min Rain = 0
KTH1 191054Z 33016KT 02/M02 A3009 RMK A01 T00201017  RH  076%=      5-min Rain = 0
KTH1 191055Z 33015KT 02/M02 A3009 RMK A01 T00201017  RH  077%=      5-min Rain = 0
KTH1 191056Z 33014G19KT 02/M02 A3009 RMK A01 T00201016  RH  077%=      5-min Rain = 0
KTH1 191057Z 34011KT 02/M02 A3009 RMK A01 T00201017  RH  077%=      5-min Rain = 0
KTH1 191058Z 34010KT 02/M02 A3009 RMK A01 T00201015  RH  077%=      5-min Rain = 0
KTH1 191059Z 33015KT 02/M02 A301 RMK A01 T00201015  RH  078%=      5-min Rain = 0
KTH1 191100Z 33013KT 02/M02 A301 RMK A01 T00201016  RH  077%=      5-min Rain = 0
KTH1 191101Z 33014KT 02/M02 A301 RMK A01 T00201016  RH  077%=      5-min Rain = 0
KTH1 191102Z 32013G18KT 02/M02 A301 RMK A01 T00201016  RH  077%=      5-min Rain = 0
KTH1 191103Z 33015KT 02/M02 A301 RMK A01 T00201016  RH  077%=      5-min Rain = 0
KTH1 191104Z 34014G19KT 02/M02 A301 RMK A01 T00201017  RH  077%=      5-min Rain = 0
KTH1 191105Z 33011KT 02/M02 A301 RMK A01 T00201016  RH  077%=      5-min Rain = 0
KTH1 191106Z 33014KT 02/M02 A301 RMK A01 T00201015  RH  078%=      5-min Rain = 0
KTH1 191107Z 33013KT 02/M02 A301 RMK A01 T00201015  RH  078%=      5-min Rain = 0
KTH1 191108Z 33014KT 02/M02 A301 RMK A01 T00201016  RH  077%=      5-min Rain = 0
KTH1 191109Z 33011KT 02/M02 A301 RMK A01 T00201016  RH  077%=      5-min Rain = 0
KTH1 191110Z 33013KT 02/M02 A301 RMK A01 T00201016  RH  077%=      5-min Rain = 0
KTH1 191111Z 33012KT 02/M02 A3011 RMK A01 T00201016  RH  077%=      5-min Rain = 0
KTH1 191112Z 33013KT 02/M02 A301 RMK A01 T00201015  RH  078%=      5-min Rain = 0
KTH1 191113Z 33013KT 02/M02 A301 RMK A01 T00201016  RH  077%=      5-min Rain = 0
KTH1 191114Z 33011KT 02/M02 A3011 RMK A01 T00201016  RH  077%=      5-min Rain = 0
KTH1 191115Z 33009KT 02/M02 A3011 RMK A01 T00201015  RH  078%=      5-min Rain = 0
KTH1 191116Z 33011KT 02/M01 A3011 RMK A01 T00201013  RH  078%=      5-min Rain = 0
KTH1 191117Z 33013KT 02/M02 A3011 RMK A01 T00201015  RH  077%=      5-min Rain = 0
KTH1 191118Z 33011KT 02/M02 A3011 RMK A01 T00201015  RH  078%=      5-min Rain = 0
KTH1 191119Z 33012KT 02/M01 A3011 RMK A01 T00201014  RH  078%=      5-min Rain = 0
KTH1 191120Z 33012KT 02/M02 A3011 RMK A01 T00201016  RH  077%=      5-min Rain = 0
KTH1 191121Z 33011KT 02/M02 A3011 RMK A01 T00201016  RH  077%=      5-min Rain = 0
KTH1 191122Z 33012KT 02/M02 A3011 RMK A01 T00201015  RH  078%=      5-min Rain = 0
KTH1 191123Z 33011KT 02/M01 A3011 RMK A01 T00201014  RH  078%=      5-min Rain = 0
KTH1 191124Z 33014G19KT 02/M02 A3011 RMK A01 T00201015  RH  078%=      5-min Rain = 0
KTH1 191125Z 33011KT 02/M02 A3011 RMK A01 T00201016  RH  077%=      5-min Rain = 0
KTH1 191126Z 33013KT 02/M02 A3011 RMK A01 T00201015  RH  077%=      5-min Rain = 0
KTH1 191127Z 33014KT 02/M02 A3011 RMK A01 T00211015  RH  077%=      5-min Rain = 0
KTH1 191128Z 33017KT 02/M02 A3011 RMK A01 T00211016  RH  077%=      5-min Rain = 0
KTH1 191129Z 33014G19KT 02/M02 A3011 RMK A01 T00211017  RH  076%=      5-min Rain = 0
KTH1 191130Z 33013G20KT 02/M02 A3011 RMK A01 T00211016  RH  076%=      5-min Rain = 0
KTH1 191131Z 33015G22KT 02/M02 A3011 RMK A01 T00221017  RH  076%=      5-min Rain = 0
KTH1 191132Z 33015G20KT 02/M02 A3011 RMK A01 T00221017  RH  076%=      5-min Rain = 0
KTH1 191133Z 34016KT 02/M02 A3011 RMK A01 T00221016  RH  076%=      5-min Rain = 0
KTH1 191134Z 34012G17KT 02/M02 A3011 RMK A01 T00221016  RH  076%=      5-min Rain = 0
KTH1 191135Z 33013KT 02/M02 A3011 RMK A01 T00221016  RH  076%=      5-min Rain = 0
KTH1 191136Z 33015KT 02/M02 A3011 RMK A01 T00221015  RH  076%=      5-min Rain = 0
KTH1 191137Z 33013KT 02/M02 A3011 RMK A01 T00221015  RH  077%=      5-min Rain = 0
KTH1 191138Z 33014G22KT 02/M02 A3011 RMK A01 T00221015  RH  076%=      5-min Rain = 0
KTH1 191139Z 33017KT 02/M02 A3011 RMK A01 T00221016  RH  076%=      5-min Rain = 0
KTH1 191140Z 33015G20KT 02/M02 A3011 RMK A01 T00221017  RH  075%=      5-min Rain = 0
KTH1 191141Z 33014KT 02/M02 A3012 RMK A01 T00231017  RH  075%=      5-min Rain = 0
KTH1 191142Z 33015G20KT 02/M02 A3012 RMK A01 T00221017  RH  075%=      5-min Rain = 0
KTH1 191143Z 33016G21KT 02/M02 A3012 RMK A01 T00221017  RH  075%=      5-min Rain = 0
KTH1 191144Z 33012KT 02/M02 A3012 RMK A01 T00231016  RH  076%=      5-min Rain = 0
KTH1 191145Z 33014KT 02/M02 A3012 RMK A01 T00231015  RH  076%=      5-min Rain = 0
KTH1 191146Z 33012KT 02/M02 A3012 RMK A01 T00221016  RH  076%=      5-min Rain = 0
KTH1 191147Z 33012KT 02/M01 A3012 RMK A01 T00231014  RH  077%=      5-min Rain = 0
KTH1 191148Z 33013KT 02/M01 A3012 RMK A01 T00231014  RH  077%=      5-min Rain = 0
KTH1 191149Z 33013KT 02/M01 A3012 RMK A01 T00231014  RH  076%=      5-min Rain = 0
KTH1 191150Z 33011KT 02/M01 A3012 RMK A01 T00231014  RH  076%=      5-min Rain = 0
KTH1 191151Z 33014KT 02/M01 A3012 RMK A01 T00231014  RH  076%=      5-min Rain = 0
KTH1 191152Z 33012KT 02/M01 A3012 RMK A01 T00231014  RH  076%=      5-min Rain = 0
KTH1 191153Z 34011KT 02/M01 A3013 RMK A01 T00231013  RH  077%=      5-min Rain = 0
KTH1 191154Z 34010G15KT 02/M01 A3013 RMK A01 T00231013  RH  077%=      5-min Rain = 0
KTH1 191155Z 34010KT 02/M01 A3013 RMK A01 T00231013  RH  077%=      5-min Rain = 0
KTH1 191156Z 33013KT 02/M01 A3013 RMK A01 T00231013  RH  077%=      5-min Rain = 0
KTH1 191157Z 33011KT 02/M01 A3013 RMK A01 T00231013  RH  077%=      5-min Rain = 0
KTH1 191158Z 34011KT 02/M01 A3013 RMK A01 T00231013  RH  077%=      5-min Rain = 0
KTH1 191159Z 34014G19KT 02/M01 A3013 RMK A01 T00231013  RH  077%=      5-min Rain = 0
KTH1 191200Z 32014KT 02/M01 A3013 RMK A01 T00221014  RH  077%=      5-min Rain = 0
KTH1 191201Z 34015KT 02/M01 A3013 RMK A01 T00231014  RH  077%=      5-min Rain = 0
KTH1 191202Z 33013KT 02/M01 A3013 RMK A01 T00231014  RH  077%=      5-min Rain = 0
KTH1 191203Z 33014KT 02/M02 A3013 RMK A01 T00231015  RH  076%=      5-min Rain = 0
KTH1 191204Z 34013G18KT 02/M02 A3013 RMK A01 T00231015  RH  076%=      5-min Rain = 0
KTH1 191205Z 33015KT 02/M02 A3013 RMK A01 T00231015  RH  076%=      5-min Rain = 0
KTH1 191206Z 33013KT 02/M02 A3013 RMK A01 T00231015  RH  076%=      5-min Rain = 0
KTH1 191207Z 33015KT 02/M02 A3013 RMK A01 T00231016  RH  076%=      5-min Rain = 0
KTH1 191208Z 33011KT 02/M02 A3014 RMK A01 T00231016  RH  076%=      5-min Rain = 0
KTH1 191209Z 33010G15KT 02/M02 A3014 RMK A01 T00221015  RH  076%=      5-min Rain = 0
KTH1 191210Z 33011KT 02/M02 A3014 RMK A01 T00221015  RH  076%=      5-min Rain = 0
KTH1 191211Z 33017G22KT 02/M02 A3014 RMK A01 T00221016  RH  076%=      5-min Rain = 0
KTH1 191212Z 33018KT 02/M02 A3014 RMK A01 T00221018  RH  075%=      5-min Rain = 0
KTH1 191213Z 33014KT 02/M02 A3014 RMK A01 T00221019  RH  074%=      5-min Rain = 0
KTH1 191214Z 34012G17KT 02/M02 A3014 RMK A01 T00221019  RH  075%=      5-min Rain = 0
KTH1 191215Z 34011KT 02/M02 A3015 RMK A01 T00221018  RH  075%=      5-min Rain = 0
KTH1 191216Z 33011G18KT 02/M02 A3015 RMK A01 T00221017  RH  075%=      5-min Rain = 0
KTH1 191217Z 34013KT 02/M02 A3015 RMK A01 T00211018  RH  075%=      5-min Rain = 0
KTH1 191218Z 34011G16KT 02/M02 A3015 RMK A01 T00211017  RH  076%=      5-min Rain = 0
KTH1 191219Z 34012KT 02/M02 A3015 RMK A01 T00211017  RH  076%=      5-min Rain = 0
KTH1 191220Z 34014G21KT 02/M02 A3015 RMK A01 T00201018  RH  076%=      5-min Rain = 0
KTH1 191221Z 34017G22KT 02/M02 A3015 RMK A01 T00201021  RH  074%=      5-min Rain = 0
KTH1 191222Z 34019G24KT 02/M02 A3015 RMK A01 T00191023  RH  074%=      5-min Rain = 0
KTH1 191223Z 33018G25KT 02/M03 A3015 RMK A01 T00191026  RH  072%=      5-min Rain = 0
KTH1 191224Z 33015G20KT 02/M03 A3015 RMK A01 T00191027  RH  072%=      5-min Rain = 0
KTH1 191225Z 33015G21KT 02/M03 A3015 RMK A01 T00181028  RH  072%=      5-min Rain = 0
KTH1 191226Z 33013G19KT 02/M03 A3015 RMK A01 T00181029  RH  071%=      5-min Rain = 0
KTH1 191227Z 33014KT 02/M03 A3016 RMK A01 T00171029  RH  071%=      5-min Rain = 0
KTH1 191228Z 34015G21KT 02/M03 A3016 RMK A01 T00171029  RH  072%=      5-min Rain = 0
KTH1 191229Z 33014KT 02/M03 A3016 RMK A01 T00161030  RH  071%=      5-min Rain = 0
KTH1 191230Z 33017G27KT 02/M03 A3016 RMK A01 T00161030  RH  072%=      5-min Rain = 0
KTH1 191231Z 32018KT 02/M03 A3016 RMK A01 T00161029  RH  072%=      5-min Rain = 0
KTH1 191232Z 33015KT 02/M03 A3016 RMK A01 T00161028  RH  072%=      5-min Rain = 0
KTH1 191233Z 33016KT 02/M03 A3016 RMK A01 T00171028  RH  072%=      5-min Rain = 0
KTH1 191234Z 33018KT 02/M03 A3016 RMK A01 T00161029  RH  072%=      5-min Rain = 0
KTH1 191235Z 33018G25KT 02/M03 A3016 RMK A01 T00161030  RH  071%=      5-min Rain = 0
KTH1 191236Z 34020KT 02/M03 A3016 RMK A01 T00161031  RH  071%=      5-min Rain = 0
KTH1 191237Z 33017G23KT 02/M03 A3016 RMK A01 T00161033  RH  070%=      5-min Rain = 0
KTH1 191238Z 33020KT 02/M03 A3016 RMK A01 T00161034  RH  070%=      5-min Rain = 0
KTH1 191239Z 32018G23KT 02/M04 A3016 RMK A01 T00151035  RH  069%=      5-min Rain = 0
KTH1 191240Z 33019G24KT 02/M04 A3016 RMK A01 T00151035  RH  070%=      5-min Rain = 0
KTH1 191241Z 33019KT 02/M04 A3017 RMK A01 T00151035  RH  070%=      5-min Rain = 0
KTH1 191242Z 33018G23KT 01/M04 A3017 RMK A01 T00141035  RH  070%=      5-min Rain = 0
KTH1 191243Z 33017KT 01/M04 A3017 RMK A01 T00141035  RH  070%=      5-min Rain = 0
KTH1 191244Z 33018G25KT 01/M04 A3017 RMK A01 T00141035  RH  070%=      5-min Rain = 0
KTH1 191245Z 33020G25KT 01/M04 A3017 RMK A01 T00131037  RH  069%=      5-min Rain = 0
KTH1 191246Z 33019G24KT 01/M04 A3017 RMK A01 T00131038  RH  069%=      5-min Rain = 0
KTH1 191247Z 33015KT 01/M04 A3017 RMK A01 T00131038  RH  069%=      5-min Rain = 0
KTH1 191248Z 33018G24KT 01/M04 A3017 RMK A01 T00131037  RH  069%=      5-min Rain = 0
KTH1 191249Z 33015KT 01/M04 A3017 RMK A01 T00121037  RH  069%=      5-min Rain = 0
KTH1 191250Z 34014KT 01/M04 A3017 RMK A01 T00121037  RH  070%=      5-min Rain = 0
KTH1 191251Z 34014G20KT 01/M04 A3017 RMK A01 T00111037  RH  070%=      5-min Rain = 0
KTH1 191252Z 34019G26KT 01/M04 A3017 RMK A01 T00101039  RH  070%=      5-min Rain = 0
KTH1 191253Z 33020G26KT 01/M04 A3017 RMK A01 T00111040  RH  069%=      5-min Rain = 0
KTH1 191254Z 34016G21KT 01/M04 A3018 RMK A01 T00101041  RH  069%=      5-min Rain = 0
KTH1 191255Z 33015KT 01/M04 A3018 RMK A01 T00101040  RH  069%=      5-min Rain = 0
KTH1 191256Z 33014KT 01/M04 A3018 RMK A01 T00101040  RH  069%=      5-min Rain = 0
KTH1 191257Z 33016G23KT 01/M04 A3018 RMK A01 T00091039  RH  070%=      5-min Rain = 0
KTH1 191258Z 32019KT 01/M04 A3018 RMK A01 T00091040  RH  070%=      5-min Rain = 0
KTH1 191259Z 33016KT 01/M04 A3018 RMK A01 T00091041  RH  069%=      5-min Rain = 0
KTH1 191300Z 33014G19KT 01/M04 A3018 RMK A01 T00091040  RH  070%=      5-min Rain = 0
KTH1 191301Z 33015KT 01/M04 A3018 RMK A01 T00091041  RH  070%=      5-min Rain = 0
KTH1 191302Z 32015KT 01/M04 A3018 RMK A01 T00081040  RH  070%=      5-min Rain = 0
KTH1 191303Z 34016G21KT 01/M04 A3018 RMK A01 T00081040  RH  070%=      5-min Rain = 0
KTH1 191304Z 33014G20KT 01/M04 A3018 RMK A01 T00081040  RH  070%=      5-min Rain = 0
KTH1 191305Z 33014KT 01/M04 A3018 RMK A01 T00081041  RH  070%=      5-min Rain = 0
KTH1 191306Z 33013KT 01/M04 A3019 RMK A01 T00071039  RH  071%=      5-min Rain = 0
KTH1 191307Z 33014KT 01/M04 A3019 RMK A01 T00071039  RH  071%=      5-min Rain = 0
KTH1 191308Z 33017KT 01/M04 A3019 RMK A01 T00071040  RH  071%=      5-min Rain = 0
KTH1 191309Z 33013G19KT 01/M04 A3019 RMK A01 T00071040  RH  071%=      5-min Rain = 0
KTH1 191310Z 33013KT 01/M04 A3019 RMK A01 T00071039  RH  072%=      5-min Rain = 0
KTH1 191311Z 33014KT 01/M04 A3019 RMK A01 T00061040  RH  071%=      5-min Rain = 0
KTH1 191312Z 33015KT 01/M04 A3019 RMK A01 T00061040  RH  071%=      5-min Rain = 0
KTH1 191313Z 33014KT 01/M04 A3019 RMK A01 T00061040  RH  072%=      5-min Rain = 0
KTH1 191314Z 33012KT 01/M04 A3019 RMK A01 T00061039  RH  072%=      5-min Rain = 0
KTH1 191315Z 32012KT 01/M04 A3019 RMK A01 T00061039  RH  072%=      5-min Rain = 0
KTH1 191316Z 33013KT 01/M04 A302 RMK A01 T00051037  RH  073%=      5-min Rain = 0
KTH1 191317Z 33011KT 01/M04 A3019 RMK A01 T00051037  RH  073%=      5-min Rain = 0
KTH1 191318Z 34013KT 01/M04 A302 RMK A01 T00051039  RH  073%=      5-min Rain = 0
KTH1 191319Z 33012KT 01/M04 A302 RMK A01 T00051039  RH  073%=      5-min Rain = 0
KTH1 191320Z 33013KT 00/M04 A302 RMK A01 T00041039  RH  073%=      5-min Rain = 0
KTH1 191321Z 33011KT 00/M04 A3019 RMK A01 T00041038  RH  073%=      5-min Rain = 0
KTH1 191322Z 33011KT 00/M04 A3019 RMK A01 T00041038  RH  073%=      5-min Rain = 0
KTH1 191323Z 33014G19KT 00/M04 A3019 RMK A01 T00041038  RH  073%=      5-min Rain = 0
KTH1 191324Z 33013G19KT 00/M04 A3019 RMK A01 T00041038  RH  073%=      5-min Rain = 0
KTH1 191325Z 33013G18KT 00/M04 A3019 RMK A01 T00041038  RH  073%=      5-min Rain = 0
KTH1 191326Z 34014KT 00/M04 A302 RMK A01 T00041038  RH  073%=      5-min Rain = 0
KTH1 191327Z 33014KT 00/M04 A3019 RMK A01 T00041038  RH  073%=      5-min Rain = 0
KTH1 191328Z 33015KT 00/M04 A3019 RMK A01 T00041037  RH  074%=      5-min Rain = 0
KTH1 191329Z 33013KT 00/M04 A3019 RMK A01 T00041037  RH  074%=      5-min Rain = 0
KTH1 191330Z 32015KT 00/M04 A3019 RMK A01 T00041037  RH  074%=      5-min Rain = 0
KTH1 191331Z 33015KT 00/M04 A3019 RMK A01 T00041039  RH  073%=      5-min Rain = 0
KTH1 191332Z 33016G22KT 00/M04 A3019 RMK A01 T00041038  RH  073%=      5-min Rain = 0
KTH1 191333Z 33017G22KT 00/M04 A3019 RMK A01 T00041038  RH  074%=      5-min Rain = 0
KTH1 191334Z 33015KT 00/M04 A302 RMK A01 T00041038  RH  073%=      5-min Rain = 0
KTH1 191335Z 33015KT 00/M04 A302 RMK A01 T00041037  RH  074%=      5-min Rain = 0
KTH1 191336Z 33014KT 00/M04 A302 RMK A01 T00041037  RH  074%=      5-min Rain = 0
KTH1 191337Z 32015KT 00/M04 A302 RMK A01 T00041037  RH  074%=      5-min Rain = 0
KTH1 191338Z 33014G19KT 00/M04 A302 RMK A01 T00041037  RH  074%=      5-min Rain = 0
KTH1 191339Z 33013KT 00/M04 A302 RMK A01 T00041038  RH  074%=      5-min Rain = 0
KTH1 191340Z 33016KT 00/M04 A302 RMK A01 T00041037  RH  074%=      5-min Rain = 0
KTH1 191341Z 32016G22KT 00/M04 A302 RMK A01 T00041038  RH  073%=      5-min Rain = 0
KTH1 191342Z 33014KT 00/M04 A302 RMK A01 T00041037  RH  074%=      5-min Rain = 0
KTH1 191343Z 32015KT 00/M04 A302 RMK A01 T00041037  RH  074%=      5-min Rain = 0
KTH1 191344Z 33014KT 00/M04 A302 RMK A01 T00041037  RH  074%=      5-min Rain = 0
KTH1 191345Z 32015KT 00/M04 A302 RMK A01 T00041037  RH  074%=      5-min Rain = 0
KTH1 191346Z 33016G21KT 00/M04 A302 RMK A01 T00041037  RH  074%=      5-min Rain = 0
KTH1 191347Z 32016G21KT 00/M04 A302 RMK A01 T00031038  RH  074%=      5-min Rain = 0
KTH1 191348Z 32015KT 00/M04 A302 RMK A01 T00041036  RH  075%=      5-min Rain = 0
KTH1 191349Z 33020KT 00/M04 A302 RMK A01 T00031037  RH  074%=      5-min Rain = 0
KTH1 191350Z 32019KT 00/M04 A302 RMK A01 T00041039  RH  073%=      5-min Rain = 0
KTH1 191351Z 32017G25KT 00/M04 A302 RMK A01 T00041039  RH  073%=      5-min Rain = 0
KTH1 191352Z 32018G25KT 01/M04 A302 RMK A01 T00051038  RH  073%=      5-min Rain = 0
KTH1 191353Z 32023G29KT 00/M04 A302 RMK A01 T00041040  RH  072%=      5-min Rain = 0
KTH1 191354Z 33021KT 00/M04 A302 RMK A01 T00041043  RH  071%=      5-min Rain = 0
KTH1 191355Z 33017KT 00/M04 A302 RMK A01 T00041043  RH  071%=      5-min Rain = 0
KTH1 191356Z 33020G28KT 00/M04 A302 RMK A01 T00041043  RH  071%=      5-min Rain = 0
KTH1 191357Z 33021G28KT 00/M04 A302 RMK A01 T00041043  RH  070%=      5-min Rain = 0
KTH1 191358Z 33021KT 00/M04 A302 RMK A01 T00041044  RH  070%=      5-min Rain = 0
KTH1 191359Z 33018G24KT 00/M05 A302 RMK A01 T00041045  RH  070%=      5-min Rain = 0
KTH1 191400Z 33019KT 00/M05 A302 RMK A01 T00041045  RH  070%=      5-min Rain = 0
KTH1 191401Z 33018G25KT 00/M04 A3021 RMK A01 T00041044  RH  070%=      5-min Rain = 0
KTH1 191402Z 32017KT 00/M04 A302 RMK A01 T00041044  RH  070%=      5-min Rain = 0
KTH1 191403Z 33020G27KT 00/M04 A3021 RMK A01 T00041044  RH  070%=      5-min Rain = 0
KTH1 191404Z 33020G25KT 00/M05 A3021 RMK A01 T00041046  RH  069%=      5-min Rain = 0
KTH1 191405Z 33017KT 00/M05 A3021 RMK A01 T00041047  RH  069%=      5-min Rain = 0
KTH1 191406Z 34016G22KT 00/M05 A3021 RMK A01 T00031046  RH  069%=      5-min Rain = 0
KTH1 191407Z 33017G24KT 00/M05 A3021 RMK A01 T00031045  RH  070%=      5-min Rain = 0
KTH1 191408Z 33019G25KT 00/M05 A3021 RMK A01 T00041045  RH  070%=      5-min Rain = 0
KTH1 191409Z 33019KT 00/M05 A3021 RMK A01 T00041046  RH  069%=      5-min Rain = 0
KTH1 191410Z 34016G21KT 00/M05 A3021 RMK A01 T00041047  RH  069%=      5-min Rain = 0
KTH1 191411Z 34019G24KT 00/M05 A3021 RMK A01 T00041047  RH  068%=      5-min Rain = 0
KTH1 191412Z 34022G29KT 00/M05 A3021 RMK A01 T00031048  RH  068%=      5-min Rain = 0
KTH1 191413Z 34018KT 00/M05 A3021 RMK A01 T00041048  RH  068%=      5-min Rain = 0
KTH1 191414Z 35014G19KT 00/M05 A3021 RMK A01 T00041047  RH  069%=      5-min Rain = 0
KTH1 191415Z 33016KT 00/M05 A3021 RMK A01 T00041046  RH  069%=      5-min Rain = 0
KTH1 191416Z 33016G22KT 00/M05 A3021 RMK A01 T00041047  RH  069%=      5-min Rain = 0
KTH1 191417Z 34011KT 00/M05 A3021 RMK A01 T00041046  RH  069%=      5-min Rain = 0
KTH1 191418Z 34014G19KT 00/M05 A3021 RMK A01 T00041045  RH  070%=      5-min Rain = 0
KTH1 191419Z 34017G23KT 00/M05 A3021 RMK A01 T00041045  RH  069%=      5-min Rain = 0
KTH1 191420Z 33013KT 00/M05 A3021 RMK A01 T00041046  RH  069%=      5-min Rain = 0
KTH1 191421Z 34013G18KT 00/M05 A3021 RMK A01 T00041045  RH  070%=      5-min Rain = 0
KTH1 191422Z 33016KT 00/M04 A3021 RMK A01 T00041044  RH  070%=      5-min Rain = 0
KTH1 191423Z 34016G21KT 01/M05 A3021 RMK A01 T00051045  RH  069%=      5-min Rain = 0
KTH1 191424Z 33018KT 01/M05 A3022 RMK A01 T00051045  RH  069%=      5-min Rain = 0
KTH1 191425Z 34018G23KT 01/M05 A3022 RMK A01 T00051045  RH  069%=      5-min Rain = 0
KTH1 191426Z 33018G23KT 01/M05 A3022 RMK A01 T00061046  RH  068%=      5-min Rain = 0
KTH1 191427Z 33016KT 01/M05 A3022 RMK A01 T00061045  RH  069%=      5-min Rain = 0
KTH1 191428Z 34016G21KT 01/M05 A3022 RMK A01 T00061045  RH  069%=      5-min Rain = 0
KTH1 191429Z 33016KT 01/M05 A3022 RMK A01 T00061045  RH  069%=      5-min Rain = 0
KTH1 191430Z 32017G23KT 01/M04 A3022 RMK A01 T00061044  RH  069%=      5-min Rain = 0
KTH1 191431Z 33018KT 01/M04 A3022 RMK A01 T00061044  RH  069%=      5-min Rain = 0
KTH1 191432Z 32017G22KT 01/M05 A3022 RMK A01 T00071045  RH  068%=      5-min Rain = 0
KTH1 191433Z 33018KT 01/M05 A3022 RMK A01 T00071045  RH  068%=      5-min Rain = 0
KTH1 191434Z 33017KT 01/M05 A3022 RMK A01 T00071045  RH  068%=      5-min Rain = 0
KTH1 191435Z 33017KT 01/M04 A3022 RMK A01 T00071044  RH  069%=      5-min Rain = 0
KTH1 191436Z 33016G24KT 01/M04 A3022 RMK A01 T00071043  RH  069%=      5-min Rain = 0
KTH1 191437Z 32016KT 01/M04 A3022 RMK A01 T00081043  RH  069%=      5-min Rain = 0
KTH1 191438Z 33021KT 01/M05 A3022 RMK A01 T00071045  RH  068%=      5-min Rain = 0
KTH1 191439Z 33018G24KT 01/M04 A3022 RMK A01 T00071044  RH  068%=      5-min Rain = 0
KTH1 191440Z 33016KT 01/M04 A3022 RMK A01 T00071044  RH  068%=      5-min Rain = 0
KTH1 191441Z 33017G23KT 01/M04 A3022 RMK A01 T00081044  RH  068%=      5-min Rain = 0
KTH1 191442Z 33018G24KT 01/M04 A3022 RMK A01 T00081044  RH  068%=      5-min Rain = 0
KTH1 191443Z 33018KT 01/M05 A3022 RMK A01 T00081045  RH  068%=      5-min Rain = 0
KTH1 191444Z 33020KT 01/M04 A3023 RMK A01 T00081044  RH  068%=      5-min Rain = 0
KTH1 191445Z 33021KT 01/M05 A3022 RMK A01 T00081045  RH  068%=      5-min Rain = 0
KTH1 191446Z 33019G25KT 01/M04 A3023 RMK A01 T00081044  RH  068%=      5-min Rain = 0
KTH1 191447Z 33016G21KT 01/M04 A3023 RMK A01 T00081043  RH  068%=      5-min Rain = 0
KTH1 191448Z 33013G19KT 01/M04 A3023 RMK A01 T00081043  RH  069%=      5-min Rain = 0
KTH1 191449Z 32019KT 01/M04 A3023 RMK A01 T00091040  RH  070%=      5-min Rain = 0
KTH1 191450Z 32019KT 01/M04 A3023 RMK A01 T00091042  RH  068%=      5-min Rain = 0
KTH1 191451Z 33021G27KT 01/M04 A3023 RMK A01 T00091043  RH  068%=      5-min Rain = 0
KTH1 191452Z 32019KT 01/M04 A3023 RMK A01 T00091044  RH  068%=      5-min Rain = 0
KTH1 191453Z 32021G27KT 01/M04 A3023 RMK A01 T00091044  RH  068%=      5-min Rain = 0
KTH1 191454Z 33024G30KT 01/M05 A3023 RMK A01 T00091045  RH  067%=      5-min Rain = 0
KTH1 191455Z 32023G29KT 01/M05 A3023 RMK A01 T00091045  RH  067%=      5-min Rain = 0
KTH1 191456Z 32023KT 01/M05 A3023 RMK A01 T00091046  RH  067%=      5-min Rain = 0
KTH1 191457Z 32022G27KT 01/M05 A3023 RMK A01 T00091045  RH  067%=      5-min Rain = 0
KTH1 191458Z 32020G25KT 01/M04 A3023 RMK A01 T00091044  RH  067%=      5-min Rain = 0
KTH1 191459Z 34017G22KT 01/M04 A3023 RMK A01 T00101044  RH  067%=      5-min Rain = 0
KTH1 191500Z 33017KT 01/M04 A3024 RMK A01 T00101044  RH  067%=      5-min Rain = 0
KTH1 191501Z 33019KT 01/M04 A3024 RMK A01 T00111043  RH  068%=      5-min Rain = 0
KTH1 191502Z 33021G27KT 01/M04 A3023 RMK A01 T00111044  RH  067%=      5-min Rain = 0
KTH1 191503Z 32019G24KT 01/M04 A3024 RMK A01 T00111043  RH  067%=      5-min Rain = 0
KTH1 191504Z 33020KT 01/M04 A3024 RMK A01 T00111043  RH  067%=      5-min Rain = 0
KTH1 191505Z 32021KT 01/M04 A3024 RMK A01 T00121044  RH  067%=      5-min Rain = 0
KTH1 191506Z 33021G29KT 01/M04 A3024 RMK A01 T00121044  RH  066%=      5-min Rain = 0
KTH1 191507Z 33021G30KT 01/M04 A3024 RMK A01 T00121044  RH  066%=      5-min Rain = 0
KTH1 191508Z 33022G28KT 01/M05 A3024 RMK A01 T00121045  RH  066%=      5-min Rain = 0
KTH1 191509Z 33020KT 01/M05 A3024 RMK A01 T00121045  RH  066%=      5-min Rain = 0
KTH1 191510Z 33019G29KT 01/M05 A3024 RMK A01 T00131045  RH  066%=      5-min Rain = 0
KTH1 191511Z 33025KT 01/M05 A3024 RMK A01 T00131046  RH  065%=      5-min Rain = 0
KTH1 191512Z 33022G30KT 01/M05 A3024 RMK A01 T00131046  RH  065%=      5-min Rain = 0
KTH1 191513Z 33019G24KT 01/M05 A3024 RMK A01 T00131046  RH  065%=      5-min Rain = 0
KTH1 191514Z 33020G25KT 01/M05 A3024 RMK A01 T00131046  RH  065%=      5-min Rain = 0
KTH1 191515Z 33019G26KT 01/M05 A3024 RMK A01 T00131046  RH  065%=      5-min Rain = 0
KTH1 191516Z 32019G25KT 01/M05 A3024 RMK A01 T00131045  RH  065%=      5-min Rain = 0
KTH1 191517Z 32018KT 01/M04 A3025 RMK A01 T00131043  RH  066%=      5-min Rain = 0
KTH1 191518Z 33018G23KT 01/M04 A3025 RMK A01 T00141042  RH  066%=      5-min Rain = 0
KTH1 191519Z 33017G26KT 01/M04 A3025 RMK A01 T00141043  RH  066%=      5-min Rain = 0
KTH1 191520Z 34022KT 02/M04 A3025 RMK A01 T00151043  RH  066%=      5-min Rain = 0
KTH1 191521Z 33021G28KT 01/M05 A3025 RMK A01 T00141045  RH  065%=      5-min Rain = 0
KTH1 191522Z 33023G28KT 01/M05 A3025 RMK A01 T00141045  RH  065%=      5-min Rain = 0
KTH1 191523Z 33022KT 01/M05 A3025 RMK A01 T00121046  RH  065%=      5-min Rain = 0
KTH1 191524Z 33018KT 01/M05 A3025 RMK A01 T00121045  RH  065%=      5-min Rain = 0
KTH1 191525Z 33021G27KT 01/M05 A3025 RMK A01 T00121045  RH  066%=      5-min Rain = 0
KTH1 191526Z 33020G25KT 01/M05 A3025 RMK A01 T00121046  RH  065%=      5-min Rain = 0
KTH1 191527Z 33019G25KT 01/M05 A3025 RMK A01 T00131045  RH  065%=      5-min Rain = 0
KTH1 191528Z 34016KT 01/M04 A3025 RMK A01 T00131044  RH  066%=      5-min Rain = 0
KTH1 191529Z 33017G22KT 01/M04 A3025 RMK A01 T00141044  RH  066%=      5-min Rain = 0
KTH1 191530Z 33018G24KT 02/M04 A3025 RMK A01 T00151042  RH  066%=      5-min Rain = 0
KTH1 191531Z 33016KT 02/M04 A3025 RMK A01 T00151042  RH  066%=      5-min Rain = 0
KTH1 191532Z 33019G26KT 02/M04 A3025 RMK A01 T00171039  RH  067%=      5-min Rain = 0
KTH1 191533Z 33019G24KT 02/M04 A3025 RMK A01 T00171041  RH  065%=      5-min Rain = 0
KTH1 191534Z 33016KT 02/M04 A3026 RMK A01 T00161042  RH  065%=      5-min Rain = 0
KTH1 191535Z 32016KT 02/M04 A3025 RMK A01 T00161041  RH  065%=      5-min Rain = 0
KTH1 191536Z 33016KT 02/M04 A3025 RMK A01 T00161042  RH  065%=      5-min Rain = 0
KTH1 191537Z 33018KT 02/M04 A3025 RMK A01 T00161043  RH  065%=      5-min Rain = 0
KTH1 191538Z 34015G20KT 02/M04 A3025 RMK A01 T00151044  RH  065%=      5-min Rain = 0
KTH1 191539Z 34015G21KT 02/M04 A3025 RMK A01 T00151043  RH  065%=      5-min Rain = 0
KTH1 191540Z 33020G27KT 02/M04 A3026 RMK A01 T00161042  RH  065%=      5-min Rain = 0
KTH1 191541Z 33021G26KT 02/M04 A3026 RMK A01 T00161043  RH  064%=      5-min Rain = 0
KTH1 191542Z 33021KT 02/M04 A3026 RMK A01 T00161044  RH  064%=      5-min Rain = 0
KTH1 191543Z 32019KT 02/M04 A3026 RMK A01 T00161044  RH  064%=      5-min Rain = 0
KTH1 191544Z 32020KT 02/M04 A3026 RMK A01 T00161043  RH  065%=      5-min Rain = 0
KTH1 191545Z 32017G22KT 02/M04 A3026 RMK A01 T00161043  RH  065%=      5-min Rain = 0
KTH1 191546Z 33016KT 02/M04 A3026 RMK A01 T00171041  RH  065%=      5-min Rain = 0
KTH1 191547Z 33013KT 02/M04 A3026 RMK A01 T00191036  RH  067%=      5-min Rain = 0
KTH1 191548Z 33014KT 02/M04 A3026 RMK A01 T00211035  RH  066%=      5-min Rain = 0
KTH1 191549Z 33015G22KT 02/M04 A3026 RMK A01 T00221037  RH  065%=      5-min Rain = 0
KTH1 191550Z 34018G24KT 02/M04 A3026 RMK A01 T00221041  RH  063%=      5-min Rain = 0
KTH1 191551Z 34017KT 02/M04 A3026 RMK A01 T00201042  RH  063%=      5-min Rain = 0
KTH1 191552Z 34015KT 02/M04 A3026 RMK A01 T00201041  RH  064%=      5-min Rain = 0
KTH1 191553Z 33015G20KT 02/M04 A3027 RMK A01 T00201039  RH  065%=      5-min Rain = 0
KTH1 191554Z 33013G18KT 02/M04 A3027 RMK A01 T00221039  RH  064%=      5-min Rain = 0
KTH1 191555Z 33018G26KT 02/M04 A3027 RMK A01 T00221039  RH  064%=      5-min Rain = 0
KTH1 191556Z 32020G25KT 02/M04 A3027 RMK A01 T00221040  RH  063%=      5-min Rain = 0
KTH1 191557Z 33020G25KT 02/M04 A3027 RMK A01 T00221040  RH  064%=      5-min Rain = 0
KTH1 191558Z 33022KT 02/M04 A3027 RMK A01 T00211041  RH  064%=      5-min Rain = 0
KTH1 191559Z 33021G26KT 02/M04 A3027 RMK A01 T00201043  RH  063%=      5-min Rain = 0
KTH1 191600Z 33018G24KT 02/M04 A3027 RMK A01 T00191043  RH  064%=      5-min Rain = 0
KTH1 191601Z 33019KT 02/M04 A3027 RMK A01 T00191041  RH  064%=      5-min Rain = 0
KTH1 191602Z 33017G22KT 02/M04 A3027 RMK A01 T00191042  RH  064%=      5-min Rain = 0
KTH1 191603Z 33019G24KT 02/M04 A3027 RMK A01 T00191042  RH  064%=      5-min Rain = 0
KTH1 191604Z 33021G27KT 02/M04 A3027 RMK A01 T00201043  RH  063%=      5-min Rain = 0
KTH1 191605Z 31022G28KT 02/M04 A3027 RMK A01 T00201042  RH  064%=      5-min Rain = 0
KTH1 191606Z 32025G32KT 02/M04 A3027 RMK A01 T00211042  RH  063%=      5-min Rain = 0
KTH1 191607Z 31025KT 02/M05 A3027 RMK A01 T00201045  RH  062%=      5-min Rain = 0
KTH1 191608Z 32024G32KT 02/M05 A3027 RMK A01 T00191045  RH  062%=      5-min Rain = 0
KTH1 191609Z 33023G29KT 02/M05 A3027 RMK A01 T00181050  RH  061%=      5-min Rain = 0
KTH1 191610Z 32021G28KT 02/M05 A3027 RMK A01 T00171050  RH  061%=      5-min Rain = 0
KTH1 191611Z 32025G31KT 02/M05 A3028 RMK A01 T00181047  RH  062%=      5-min Rain = 0
KTH1 191612Z 32020G27KT 02/M05 A3028 RMK A01 T00191048  RH  061%=      5-min Rain = 0
KTH1 191613Z 33021KT 02/M05 A3028 RMK A01 T00191046  RH  062%=      5-min Rain = 0
KTH1 191614Z 33019G24KT 02/M05 A3028 RMK A01 T00191048  RH  061%=      5-min Rain = 0
KTH1 191615Z 32026G32KT 02/M05 A3027 RMK A01 T00191050  RH  060%=      5-min Rain = 0
KTH1 191616Z 33021G26KT 02/M05 A3028 RMK A01 T00181051  RH  060%=      5-min Rain = 0
KTH1 191617Z 32021G29KT 02/M05 A3028 RMK A01 T00191049  RH  061%=      5-min Rain = 0
KTH1 191618Z 32020G28KT 02/M05 A3028 RMK A01 T00191050  RH  060%=      5-min Rain = 0
KTH1 191619Z 32021G26KT 02/M05 A3028 RMK A01 T00201048  RH  060%=      5-min Rain = 0
KTH1 191620Z 33019G30KT 02/M05 A3028 RMK A01 T00211052  RH  059%=      5-min Rain = 0
KTH1 191621Z 34018G26KT 02/M05 A3028 RMK A01 T00201052  RH  059%=      5-min Rain = 0
KTH1 191622Z 34021G30KT 02/M05 A3028 RMK A01 T00211053  RH  058%=      5-min Rain = 0
KTH1 191623Z 32020G25KT 02/M05 A3028 RMK A01 T00211054  RH  058%=      5-min Rain = 0
KTH1 191624Z 33016G23KT 02/M05 A3028 RMK A01 T00211052  RH  059%=      5-min Rain = 0
KTH1 191625Z 33020KT 02/M05 A3028 RMK A01 T00211052  RH  058%=      5-min Rain = 0
KTH1 191626Z 33017G25KT 02/M05 A3028 RMK A01 T00211052  RH  058%=      5-min Rain = 0
KTH1 191627Z 33015G20KT 02/M05 A3028 RMK A01 T00221051  RH  059%=      5-min Rain = 0
KTH1 191628Z 33017G23KT 02/M05 A3028 RMK A01 T00231049  RH  059%=      5-min Rain = 0
KTH1 191629Z 33020G30KT 03/M05 A3028 RMK A01 T00251048  RH  059%=      5-min Rain = 0
KTH1 191630Z 33021G27KT 03/M05 A3028 RMK A01 T00251054  RH  056%=      5-min Rain = 0
KTH1 191631Z 32020G26KT 02/M06 A3029 RMK A01 T00231056  RH  056%=      5-min Rain = 0
KTH1 191632Z 32018G33KT 02/M05 A3029 RMK A01 T00221052  RH  058%=      5-min Rain = 0
KTH1 191633Z 33021KT 02/M05 A3029 RMK A01 T00231052  RH  058%=      5-min Rain = 0
KTH1 191634Z 33017G22KT 02/M05 A3029 RMK A01 T00231051  RH  058%=      5-min Rain = 0
KTH1 191635Z 33015G21KT 02/M05 A3029 RMK A01 T00241050  RH  058%=      5-min Rain = 0
KTH1 191636Z 33015G22KT 03/M05 A3029 RMK A01 T00261048  RH  058%=      5-min Rain = 0
KTH1 191637Z 34014KT 03/M05 A3029 RMK A01 T00261050  RH  057%=      5-min Rain = 0
KTH1 191638Z 33018G24KT 03/M05 A3029 RMK A01 T00261050  RH  057%=      5-min Rain = 0
KTH1 191639Z 33018G26KT 03/M05 A3029 RMK A01 T00261052  RH  056%=      5-min Rain = 0
KTH1 191640Z 34019G27KT 03/M05 A3029 RMK A01 T00271053  RH  056%=      5-min Rain = 0
KTH1 191641Z 34022G31KT 03/M06 A3029 RMK A01 T00261056  RH  055%=      5-min Rain = 0
KTH1 191642Z 33019G25KT 02/M06 A3029 RMK A01 T00241057  RH  055%=      5-min Rain = 0
KTH1 191643Z 33023KT 02/M06 A3029 RMK A01 T00241056  RH  055%=      5-min Rain = 0
KTH1 191644Z 32020G27KT 02/M06 A3029 RMK A01 T00241056  RH  055%=      5-min Rain = 0
KTH1 191645Z 33017G22KT 03/M05 A3029 RMK A01 T00251052  RH  057%=      5-min Rain = 0
KTH1 191646Z 32023G29KT 03/M05 A3029 RMK A01 T00261052  RH  057%=      5-min Rain = 0
KTH1 191647Z 32024G31KT 03/M06 A3029 RMK A01 T00261055  RH  055%=      5-min Rain = 0
KTH1 191648Z 33024G32KT 03/M06 A3029 RMK A01 T00251057  RH  055%=      5-min Rain = 0
KTH1 191649Z 33024G31KT 02/M06 A3029 RMK A01 T00241055  RH  056%=      5-min Rain = 0
KTH1 191650Z 33027KT 02/M06 A3029 RMK A01 T00241056  RH  055%=      5-min Rain = 0
KTH1 191651Z 33023G31KT 02/M06 A3029 RMK A01 T00241057  RH  055%=      5-min Rain = 0
KTH1 191652Z 33020KT 02/M06 A303 RMK A01 T00241056  RH  055%=      5-min Rain = 0
KTH1 191653Z 32023G28KT 03/M05 A3029 RMK A01 T00251053  RH  056%=      5-min Rain = 0
KTH1 191654Z 33022KT 03/M05 A303 RMK A01 T00261054  RH  055%=      5-min Rain = 0
KTH1 191655Z 33023G30KT 03/M06 A303 RMK A01 T00261056  RH  055%=      5-min Rain = 0
KTH1 191656Z 33021KT 03/M06 A303 RMK A01 T00261056  RH  055%=      5-min Rain = 0
KTH1 191657Z 33021G26KT 03/M06 A303 RMK A01 T00261056  RH  055%=      5-min Rain = 0
KTH1 191658Z 33018KT 03/M06 A303 RMK A01 T00271056  RH  054%=      5-min Rain = 0
KTH1 191659Z 32021G28KT 03/M05 A303 RMK A01 T00281053  RH  055%=      5-min Rain = 0
KTH1 191700Z 33023G29KT 03/M05 A303 RMK A01 T00281054  RH  055%=      5-min Rain = 0
KTH1 191701Z 33020G25KT 03/M06 A303 RMK A01 T00281055  RH  055%=      5-min Rain = 0
KTH1 191702Z 33023G31KT 03/M05 A303 RMK A01 T00281054  RH  055%=      5-min Rain = 0
KTH1 191703Z 32022G29KT 03/M06 A303 RMK A01 T00281055  RH  055%=      5-min Rain = 0
KTH1 191704Z 32023KT 03/M06 A303 RMK A01 T00271055  RH  055%=      5-min Rain = 0
KTH1 191705Z 33024G34KT 03/M06 A303 RMK A01 T00271057  RH  054%=      5-min Rain = 0
KTH1 191706Z 33022G27KT 03/M06 A303 RMK A01 T00261058  RH  054%=      5-min Rain = 0
KTH1 191707Z 32022G28KT 03/M06 A303 RMK A01 T00261058  RH  054%=      5-min Rain = 0
KTH1 191708Z 32023KT 03/M06 A303 RMK A01 T00271055  RH  055%=      5-min Rain = 0
KTH1 191709Z 32021KT 03/M06 A303 RMK A01 T00281055  RH  055%=      5-min Rain = 0
KTH1 191710Z 32021G28KT 03/M05 A303 RMK A01 T00281053  RH  055%=      5-min Rain = 0
KTH1 191711Z 33024G29KT 03/M06 A303 RMK A01 T00291056  RH  054%=      5-min Rain = 0
KTH1 191712Z 33020G26KT 03/M06 A303 RMK A01 T00281059  RH  053%=      5-min Rain = 0
KTH1 191713Z 33022G28KT 03/M06 A303 RMK A01 T00271057  RH  054%=      5-min Rain = 0
KTH1 191714Z 34020G26KT 03/M06 A303 RMK A01 T00281057  RH  054%=      5-min Rain = 0
KTH1 191715Z 33020G31KT 03/M06 A303 RMK A01 T00291057  RH  053%=      5-min Rain = 0
KTH1 191716Z 33023G29KT 03/M06 A303 RMK A01 T00291058  RH  052%=      5-min Rain = 0
KTH1 191717Z 32024G30KT 03/M06 A303 RMK A01 T00281060  RH  052%=      5-min Rain = 0
KTH1 191718Z 32022G30KT 03/M06 A303 RMK A01 T00281060  RH  052%=      5-min Rain = 0
KTH1 191719Z 32021G27KT 03/M06 A303 RMK A01 T00281058  RH  053%=      5-min Rain = 0
KTH1 191720Z 33019G28KT 03/M06 A3031 RMK A01 T00291057  RH  053%=      5-min Rain = 0
KTH1 191721Z 33024G30KT 03/M06 A303 RMK A01 T00301057  RH  053%=      5-min Rain = 0
KTH1 191722Z 33022G27KT 03/M06 A303 RMK A01 T00301059  RH  052%=      5-min Rain = 0
KTH1 191723Z 34021G29KT 03/M06 A303 RMK A01 T00301057  RH  053%=      5-min Rain = 0
KTH1 191724Z 33016G22KT 03/M06 A303 RMK A01 T00301057  RH  053%=      5-min Rain = 0
KTH1 191725Z 32022G29KT 03/M06 A303 RMK A01 T00311055  RH  053%=      5-min Rain = 0
KTH1 191726Z 33021G26KT 03/M06 A303 RMK A01 T00311055  RH  053%=      5-min Rain = 0
KTH1 191727Z 33019G25KT 03/M06 A303 RMK A01 T00311056  RH  053%=      5-min Rain = 0
KTH1 191728Z 32021G28KT 03/M05 A303 RMK A01 T00311054  RH  054%=      5-min Rain = 0
KTH1 191729Z 33025G30KT 03/M06 A303 RMK A01 T00321058  RH  052%=      5-min Rain = 0
KTH1 191730Z 33021KT 03/M06 A303 RMK A01 T00311059  RH  052%=      5-min Rain = 0
KTH1 191731Z 33019G29KT 03/M06 A303 RMK A01 T00301059  RH  052%=      5-min Rain = 0
KTH1 191732Z 34020G25KT 03/M06 A303 RMK A01 T00311060  RH  051%=      5-min Rain = 0
KTH1 191733Z 33022G28KT 03/M06 A303 RMK A01 T00311060  RH  051%=      5-min Rain = 0
KTH1 191734Z 33019G24KT 03/M06 A303 RMK A01 T00311059  RH  051%=      5-min Rain = 0
KTH1 191735Z 33021G27KT 03/M06 A303 RMK A01 T00311057  RH  052%=      5-min Rain = 0
KTH1 191736Z 34016G23KT 03/M06 A303 RMK A01 T00311057  RH  052%=      5-min Rain = 0
KTH1 191737Z 33020KT 03/M06 A303 RMK A01 T00331056  RH  052%=      5-min Rain = 0
KTH1 191738Z 32021KT 03/M06 A303 RMK A01 T00331058  RH  051%=      5-min Rain = 0
KTH1 191739Z 32020KT 03/M06 A303 RMK A01 T00311060  RH  051%=      5-min Rain = 0
KTH1 191740Z 33021G29KT 03/M06 A303 RMK A01 T00311061  RH  051%=      5-min Rain = 0
KTH1 191741Z 33019G26KT 03/M06 A303 RMK A01 T00311060  RH  051%=      5-min Rain = 0
KTH1 191742Z 33023G30KT 03/M06 A303 RMK A01 T00321058  RH  052%=      5-min Rain = 0
KTH1 191743Z 33022G28KT 03/M06 A303 RMK A01 T00321062  RH  050%=      5-min Rain = 0
KTH1 191744Z 32021G27KT 03/M06 A303 RMK A01 T00321055  RH  053%=      5-min Rain = 0
KTH1 191745Z 32024G29KT 03/M06 A303 RMK A01 T00321055  RH  053%=      5-min Rain = 0
KTH1 191746Z 32021G26KT 03/M06 A303 RMK A01 T00321060  RH  051%=      5-min Rain = 0
KTH1 191747Z 33023G29KT 03/M06 A303 RMK A01 T00321060  RH  051%=      5-min Rain = 0
KTH1 191748Z 33021G26KT 03/M06 A303 RMK A01 T00321061  RH  050%=      5-min Rain = 0
KTH1 191749Z 33020G26KT 03/M06 A303 RMK A01 T00321062  RH  050%=      5-min Rain = 0
KTH1 191750Z 33019G24KT 03/M06 A303 RMK A01 T00331062  RH  050%=      5-min Rain = 0
KTH1 191751Z 33019G26KT 03/M06 A303 RMK A01 T00331062  RH  050%=      5-min Rain = 0
KTH1 191752Z 34020G26KT 03/M06 A303 RMK A01 T00331063  RH  050%=      5-min Rain = 0
KTH1 191753Z 33018KT 03/M06 A303 RMK A01 T00331060  RH  050%=      5-min Rain = 0
KTH1 191754Z 33022KT 04/M06 A303 RMK A01 T00351059  RH  050%=      5-min Rain = 0
KTH1 191755Z 32023G30KT 04/M06 A3029 RMK A01 T00351060  RH  050%=      5-min Rain = 0
KTH1 191756Z 33021G26KT 03/M06 A3029 RMK A01 T00341063  RH  049%=      5-min Rain = 0
KTH1 191757Z 32019G24KT 03/M06 A3029 RMK A01 T00341059  RH  051%=      5-min Rain = 0
KTH1 191758Z 32021G30KT 04/M05 A3029 RMK A01 T00361054  RH  052%=      5-min Rain = 0
KTH1 191759Z 32024KT 04/M06 A3029 RMK A01 T00361056  RH  051%=      5-min Rain = 0
KTH1 191800Z 32020G25KT 04/M06 A3029 RMK A01 T00351059  RH  050%=      5-min Rain = 0
KTH1 191801Z 32019KT 04/M06 A3029 RMK A01 T00351055  RH  052%=      5-min Rain = 0
KTH1 191802Z 34019G26KT 04/M06 A3029 RMK A01 T00371057  RH  051%=      5-min Rain = 0
KTH1 191803Z 33018G25KT 04/M06 A3029 RMK A01 T00381058  RH  049%=      5-min Rain = 0
KTH1 191804Z 34017G24KT 04/M06 A3029 RMK A01 T00401060  RH  048%=      5-min Rain = 0
KTH1 191805Z 33018G26KT 04/M06 A3029 RMK A01 T00401059  RH  048%=      5-min Rain = 0
KTH1 191806Z 33021G26KT 04/M06 A3029 RMK A01 T00401060  RH  048%=      5-min Rain = 0
KTH1 191807Z 32018G24KT 04/M06 A3029 RMK A01 T00401062  RH  047%=      5-min Rain = 0
KTH1 191808Z 33022G28KT 04/M06 A3029 RMK A01 T00401059  RH  049%=      5-min Rain = 0
KTH1 191809Z 33023G29KT 04/M06 A3029 RMK A01 T00401062  RH  047%=      5-min Rain = 0
KTH1 191810Z 34016G22KT 04/M06 A3029 RMK A01 T00391063  RH  047%=      5-min Rain = 0
KTH1 191811Z 32018G25KT 04/M06 A3029 RMK A01 T00401058  RH  049%=      5-min Rain = 0
KTH1 191812Z 32022KT 04/M06 A3029 RMK A01 T00411059  RH  048%=      5-min Rain = 0
KTH1 191813Z 32020G26KT 04/M06 A3029 RMK A01 T00391059  RH  049%=      5-min Rain = 0
KTH1 191814Z 33019KT 04/M06 A3029 RMK A01 T00391057  RH  050%=      5-min Rain = 0
KTH1 191815Z 33015KT 04/M06 A3029 RMK A01 T00401057  RH  049%=      5-min Rain = 0
KTH1 191816Z 33018G23KT 04/M06 A3029 RMK A01 T00421056  RH  049%=      5-min Rain = 0
KTH1 191817Z 32018G23KT 04/M06 A3029 RMK A01 T00421056  RH  049%=      5-min Rain = 0
KTH1 191818Z 32020KT 04/M06 A3029 RMK A01 T00411056  RH  049%=      5-min Rain = 0
KTH1 191819Z 32019G25KT 04/M06 A3029 RMK A01 T00411055  RH  050%=      5-min Rain = 0
KTH1 191820Z 33018G24KT 04/M05 A3029 RMK A01 T00411054  RH  050%=      5-min Rain = 0
KTH1 191821Z 33022G27KT 04/M06 A3029 RMK A01 T00421056  RH  049%=      5-min Rain = 0
KTH1 191822Z 33019G26KT 04/M06 A3029 RMK A01 T00431058  RH  048%=      5-min Rain = 0
KTH1 191823Z 33019KT 04/M06 A3028 RMK A01 T00431059  RH  047%=      5-min Rain = 0
KTH1 191824Z 33018KT 04/M06 A3028 RMK A01 T00441058  RH  047%=      5-min Rain = 0
KTH1 191825Z 33021G28KT 05/M06 A3028 RMK A01 T00461057  RH  047%=      5-min Rain = 0
KTH1 191826Z 32023G30KT 05/M06 A3028 RMK A01 T00461058  RH  047%=      5-min Rain = 0
KTH1 191827Z 33023G28KT 05/M06 A3028 RMK A01 T00451060  RH  047%=      5-min Rain = 0
KTH1 191828Z 33018KT 04/M06 A3028 RMK A01 T00431061  RH  047%=      5-min Rain = 0
KTH1 191829Z 33023G28KT 04/M06 A3028 RMK A01 T00431060  RH  047%=      5-min Rain = 0
KTH1 191830Z 34020G25KT 04/M06 A3028 RMK A01 T00441063  RH  046%=      5-min Rain = 0
KTH1 191831Z 33021G29KT 04/M06 A3028 RMK A01 T00441062  RH  046%=      5-min Rain = 0
KTH1 191832Z 33022G29KT 05/M06 A3028 RMK A01 T00461061  RH  046%=      5-min Rain = 0
KTH1 191833Z 34019G26KT 05/M06 A3028 RMK A01 T00461064  RH  045%=      5-min Rain = 0
KTH1 191834Z 34021G28KT 05/M06 A3028 RMK A01 T00461063  RH  045%=      5-min Rain = 0
KTH1 191835Z 33021G27KT 05/M06 A3028 RMK A01 T00461061  RH  046%=      5-min Rain = 0
KTH1 191836Z 33020G29KT 05/M06 A3028 RMK A01 T00451062  RH  046%=      5-min Rain = 0
KTH1 191837Z 34023G29KT 05/M06 A3028 RMK A01 T00451063  RH  045%=      5-min Rain = 0
KTH1 191838Z 33025G30KT 05/M06 A3028 RMK A01 T00451064  RH  045%=      5-min Rain = 0
KTH1 191839Z 32026G33KT 05/M06 A3028 RMK A01 T00451062  RH  046%=      5-min Rain = 0
KTH1 191840Z 33025G32KT 04/M07 A3028 RMK A01 T00441066  RH  045%=      5-min Rain = 0
KTH1 191841Z 32023G29KT 04/M06 A3028 RMK A01 T00431063  RH  046%=      5-min Rain = 0
KTH1 191842Z 33022G29KT 04/M06 A3028 RMK A01 T00441062  RH  046%=      5-min Rain = 0
KTH1 191843Z 32024G30KT 05/M06 A3028 RMK A01 T00451064  RH  045%=      5-min Rain = 0
KTH1 191844Z 33025G33KT 05/M07 A3028 RMK A01 T00451065  RH  045%=      5-min Rain = 0
KTH1 191845Z 33025G34KT 05/M07 A3028 RMK A01 T00451065  RH  045%=      5-min Rain = 0
KTH1 191846Z 32022G29KT 05/M06 A3028 RMK A01 T00451063  RH  045%=      5-min Rain = 0
KTH1 191847Z 33020G27KT 05/M06 A3028 RMK A01 T00461062  RH  045%=      5-min Rain = 0
KTH1 191848Z 33022G27KT 05/M06 A3028 RMK A01 T00461064  RH  045%=      5-min Rain = 0
KTH1 191849Z 32024G33KT 05/M07 A3028 RMK A01 T00461065  RH  045%=      5-min Rain = 0
KTH1 191850Z 32022G27KT 05/M06 A3027 RMK A01 T00461064  RH  045%=      5-min Rain = 0
KTH1 191851Z 33026G32KT 05/M06 A3028 RMK A01 T00451062  RH  046%=      5-min Rain = 0
KTH1 191852Z 33018G24KT 05/M06 A3028 RMK A01 T00461063  RH  045%=      5-min Rain = 0
KTH1 191853Z 32020G27KT 05/M06 A3028 RMK A01 T00481059  RH  046%=      5-min Rain = 0
KTH1 191854Z 33017G23KT 05/M06 A3028 RMK A01 T00491060  RH  045%=      5-min Rain = 0
KTH1 191855Z 34019G25KT 05/M06 A3028 RMK A01 T00501063  RH  044%=      5-min Rain = 0
KTH1 191856Z 34020G25KT 05/M06 A3027 RMK A01 T00501064  RH  043%=      5-min Rain = 0
KTH1 191857Z 34021G27KT 05/M07 A3027 RMK A01 T00501066  RH  043%=      5-min Rain = 0
KTH1 191858Z 34019G25KT 05/M07 A3027 RMK A01 T00491065  RH  044%=      5-min Rain = 0
KTH1 191859Z 34013G21KT 05/M06 A3027 RMK A01 T00501061  RH  045%=      5-min Rain = 0
KTH1 191900Z 33019G25KT 05/M06 A3027 RMK A01 T00521059  RH  045%=      5-min Rain = 0
KTH1 191901Z 33019G25KT 05/M06 A3027 RMK A01 T00521061  RH  044%=      5-min Rain = 0
KTH1 191902Z 33019G27KT 05/M06 A3027 RMK A01 T00521061  RH  044%=      5-min Rain = 0
KTH1 191903Z 34019G29KT 05/M06 A3027 RMK A01 T00521060  RH  044%=      5-min Rain = 0
KTH1 191904Z 34023KT 05/M07 A3027 RMK A01 T00521066  RH  042%=      5-min Rain = 0
KTH1 191905Z 35015G21KT 05/M07 A3027 RMK A01 T00511065  RH  043%=      5-min Rain = 0
KTH1 191906Z 34017G22KT 05/M06 A3027 RMK A01 T00531062  RH  043%=      5-min Rain = 0
KTH1 191907Z 33017G24KT 05/M06 A3027 RMK A01 T00531063  RH  043%=      5-min Rain = 0
KTH1 191908Z 34017G23KT 05/M06 A3027 RMK A01 T00541062  RH  043%=      5-min Rain = 0
KTH1 191909Z 35019G26KT 06/M06 A3027 RMK A01 T00551060  RH  043%=      5-min Rain = 0
KTH1 191910Z 33018G23KT 06/M06 A3027 RMK A01 T00551060  RH  043%=      5-min Rain = 0
KTH1 191911Z 33017KT 06/M06 A3027 RMK A01 T00551059  RH  044%=      5-min Rain = 0
KTH1 191912Z 33022G27KT 06/M06 A3027 RMK A01 T00551059  RH  043%=      5-min Rain = 0
KTH1 191913Z 32019G25KT 06/M06 A3026 RMK A01 T00551059  RH  044%=      5-min Rain = 0
KTH1 191914Z 33020G27KT 05/M05 A3027 RMK A01 T00541054  RH  046%=      5-min Rain = 0
KTH1 191915Z 33017G23KT 05/M06 A3026 RMK A01 T00541059  RH  044%=      5-min Rain = 0
KTH1 191916Z 33013G20KT 05/M06 A3026 RMK A01 T00541057  RH  044%=      5-min Rain = 0
KTH1 191917Z 33019G25KT 06/M06 A3026 RMK A01 T00561057  RH  044%=      5-min Rain = 0
KTH1 191918Z 33020G25KT 06/M06 A3026 RMK A01 T00561061  RH  043%=      5-min Rain = 0
KTH1 191919Z 33017G22KT 05/M06 A3026 RMK A01 T00531064  RH  043%=      5-min Rain = 0
KTH1 191920Z 32018KT 05/M06 A3026 RMK A01 T00531059  RH  044%=      5-min Rain = 0
KTH1 191921Z 31021G26KT 05/M06 A3026 RMK A01 T00541055  RH  045%=      5-min Rain = 0
KTH1 191922Z 32016KT 05/M05 A3026 RMK A01 T00531054  RH  046%=      5-min Rain = 0
KTH1 191923Z 34016G24KT 06/M05 A3026 RMK A01 T00551054  RH  045%=      5-min Rain = 0
KTH1 191924Z 34019G25KT 06/M06 A3026 RMK A01 T00571058  RH  043%=      5-min Rain = 0
KTH1 191925Z 32023G28KT 06/M06 A3026 RMK A01 T00571063  RH  042%=      5-min Rain = 0
KTH1 191926Z 32025G31KT 05/M07 A3025 RMK A01 T00541068  RH  041%=      5-min Rain = 0
KTH1 191927Z 33024G29KT 05/M07 A3026 RMK A01 T00521066  RH  042%=      5-min Rain = 0
KTH1 191928Z 33025G31KT 05/M07 A3026 RMK A01 T00521067  RH  042%=      5-min Rain = 0
KTH1 191929Z 32023KT 05/M07 A3026 RMK A01 T00511067  RH  042%=      5-min Rain = 0
KTH1 191930Z 33022G28KT 05/M06 A3026 RMK A01 T00511064  RH  043%=      5-min Rain = 0
KTH1 191931Z 33023G29KT 05/M07 A3026 RMK A01 T00511066  RH  042%=      5-min Rain = 0
KTH1 191932Z 33021G26KT 05/M07 A3026 RMK A01 T00511065  RH  043%=      5-min Rain = 0
KTH1 191933Z 32025G30KT 05/M06 A3025 RMK A01 T00521064  RH  043%=      5-min Rain = 0
KTH1 191934Z 32023G28KT 05/M06 A3025 RMK A01 T00521062  RH  044%=      5-min Rain = 0
KTH1 191935Z 32020KT 05/M06 A3025 RMK A01 T00521059  RH  044%=      5-min Rain = 0
KTH1 191936Z 32021G26KT 05/M06 A3025 RMK A01 T00531059  RH  044%=      5-min Rain = 0
KTH1 191937Z 33019G25KT 05/M06 A3025 RMK A01 T00531060  RH  044%=      5-min Rain = 0
KTH1 191938Z 34021G30KT 05/M06 A3025 RMK A01 T00541062  RH  043%=      5-min Rain = 0
KTH1 191939Z 33023G31KT 06/M07 A3025 RMK A01 T00551066  RH  042%=      5-min Rain = 0
KTH1 191940Z 33024G30KT 05/M07 A3025 RMK A01 T00541069  RH  041%=      5-min Rain = 0
KTH1 191941Z 33022G30KT 05/M07 A3025 RMK A01 T00521069  RH  041%=      5-min Rain = 0
KTH1 191942Z 33020G28KT 05/M07 A3026 RMK A01 T00531067  RH  042%=      5-min Rain = 0
KTH1 191943Z 32021G27KT 05/M07 A3026 RMK A01 T00541065  RH  042%=      5-min Rain = 0
KTH1 191944Z 33023G30KT 06/M06 A3026 RMK A01 T00551062  RH  042%=      5-min Rain = 0
KTH1 191945Z 33020G29KT 06/M07 A3025 RMK A01 T00551065  RH  042%=      5-min Rain = 0
KTH1 191946Z 33022KT 06/M07 A3026 RMK A01 T00551065  RH  042%=      5-min Rain = 0
KTH1 191947Z 33021G27KT 05/M07 A3026 RMK A01 T00541067  RH  041%=      5-min Rain = 0
KTH1 191948Z 34021G28KT 05/M07 A3025 RMK A01 T00541066  RH  042%=      5-min Rain = 0
KTH1 191949Z 33025G30KT 05/M07 A3026 RMK A01 T00541068  RH  041%=      5-min Rain = 0
KTH1 191950Z 34019G24KT 05/M07 A3025 RMK A01 T00531068  RH  041%=      5-min Rain = 0
KTH1 191951Z 33024G31KT 05/M07 A3025 RMK A01 T00531067  RH  041%=      5-min Rain = 0
KTH1 191952Z 34023G30KT 05/M07 A3026 RMK A01 T00541069  RH  041%=      5-min Rain = 0
KTH1 191953Z 32022G29KT 05/M07 A3026 RMK A01 T00531067  RH  041%=      5-min Rain = 0
KTH1 191954Z 32021G27KT 05/M06 A3026 RMK A01 T00531064  RH  042%=      5-min Rain = 0
KTH1 191955Z 32018G23KT 05/M06 A3026 RMK A01 T00541064  RH  042%=      5-min Rain = 0
KTH1 191956Z 32022G33KT 05/M06 A3026 RMK A01 T00541062  RH  043%=      5-min Rain = 0
KTH1 191957Z 32026G37KT 06/M06 A3025 RMK A01 T00551063  RH  042%=      5-min Rain = 0
KTH1 191958Z 32024KT 05/M07 A3026 RMK A01 T00541069  RH  041%=      5-min Rain = 0
KTH1 191959Z 33026KT 05/M07 A3026 RMK A01 T00531069  RH  041%=      5-min Rain = 0
KTH1 192000Z 32024G29KT 05/M07 A3026 RMK A01 T00521070  RH  041%=      5-min Rain = 0
KTH1 192001Z 33026KT 05/M07 A3026 RMK A01 T00511069  RH  041%=      5-min Rain = 0
KTH1 192002Z 33019G28KT 05/M07 A3026 RMK A01 T00511070  RH  041%=      5-min Rain = 0
KTH1 192003Z 34019G25KT 05/M07 A3026 RMK A01 T00521067  RH  042%=      5-min Rain = 0
KTH1 192004Z 35017G25KT 05/M07 A3026 RMK A01 T00541067  RH  041%=      5-min Rain = 0
KTH1 192005Z 35016G21KT 06/M07 A3026 RMK A01 T00561065  RH  041%=      5-min Rain = 0
KTH1 192006Z 34013G19KT 06/M07 A3026 RMK A01 T00561065  RH  041%=      5-min Rain = 0
KTH1 192007Z 35018G25KT 06/M06 A3026 RMK A01 T00571063  RH  041%=      5-min Rain = 0
KTH1 192008Z 33017G23KT 06/M06 A3026 RMK A01 T00581063  RH  041%=      5-min Rain = 0
KTH1 192009Z 33025G32KT 06/M06 A3026 RMK A01 T00591063  RH  041%=      5-min Rain = 0
KTH1 192010Z 33022G27KT 06/M07 A3026 RMK A01 T00571069  RH  040%=      5-min Rain = 0
KTH1 192011Z 32022G27KT 06/M06 A3026 RMK A01 T00561064  RH  042%=      5-min Rain = 0
KTH1 192012Z 32023G28KT 06/M06 A3026 RMK A01 T00561062  RH  042%=      5-min Rain = 0
KTH1 192013Z 32020G25KT 06/M07 A3026 RMK A01 T00561067  RH  041%=      5-min Rain = 0
KTH1 192014Z 33020G25KT 06/M07 A3026 RMK A01 T00551066  RH  041%=      5-min Rain = 0
KTH1 192015Z 32021G26KT 06/M06 A3026 RMK A01 T00551064  RH  042%=      5-min Rain = 0
KTH1 192016Z 32020G29KT 06/M06 A3026 RMK A01 T00561060  RH  043%=      5-min Rain = 0
KTH1 192017Z 32020G28KT 06/M06 A3026 RMK A01 T00571056  RH  044%=      5-min Rain = 0
KTH1 192018Z 33019G24KT 06/M06 A3026 RMK A01 T00591057  RH  043%=      5-min Rain = 0
KTH1 192019Z 33019KT 06/M06 A3026 RMK A01 T00591060  RH  042%=      5-min Rain = 0
KTH1 192020Z 33020G25KT 06/M06 A3026 RMK A01 T00591060  RH  042%=      5-min Rain = 0
KTH1 192021Z 33025G31KT 06/M06 A3026 RMK A01 T00591064  RH  041%=      5-min Rain = 0
KTH1 192022Z 33024G30KT 06/M07 A3026 RMK A01 T00571069  RH  040%=      5-min Rain = 0
KTH1 192023Z 34021KT 06/M07 A3026 RMK A01 T00561067  RH  041%=      5-min Rain = 0
KTH1 192024Z 34018G26KT 06/M07 A3026 RMK A01 T00561067  RH  041%=      5-min Rain = 0
KTH1 192025Z 33017G22KT 06/M07 A3026 RMK A01 T00571067  RH  041%=      5-min Rain = 0
KTH1 192026Z 35017G23KT 06/M07 A3026 RMK A01 T00571068  RH  040%=      5-min Rain = 0
KTH1 192027Z 33018G24KT 06/M07 A3026 RMK A01 T00571069  RH  040%=      5-min Rain = 0
KTH1 192028Z 34018G23KT 06/M07 A3026 RMK A01 T00571069  RH  040%=      5-min Rain = 0
KTH1 192029Z 33021KT 06/M07 A3026 RMK A01 T00561069  RH  040%=      5-min Rain = 0
KTH1 192030Z 32025KT 06/M07 A3026 RMK A01 T00571069  RH  040%=      5-min Rain = 0
KTH1 192031Z 33024G29KT 06/M07 A3026 RMK A01 T00561068  RH  041%=      5-min Rain = 0
KTH1 192032Z 33021KT 06/M07 A3026 RMK A01 T00551067  RH  041%=      5-min Rain = 0
KTH1 192033Z 33019G25KT 06/M07 A3026 RMK A01 T00561066  RH  041%=      5-min Rain = 0
KTH1 192034Z 33017G22KT 06/M07 A3026 RMK A01 T00581065  RH  041%=      5-min Rain = 0
KTH1 192035Z 34017G23KT 06/M06 A3026 RMK A01 T00591063  RH  041%=      5-min Rain = 0
KTH1 192036Z 34014G20KT 06/M06 A3026 RMK A01 T00601062  RH  041%=      5-min Rain = 0
KTH1 192037Z 34019G25KT 06/M07 A3026 RMK A01 T00611065  RH  040%=      5-min Rain = 0
KTH1 192038Z 33017KT 06/M07 A3026 RMK A01 T00591069  RH  039%=      5-min Rain = 0
KTH1 192039Z 33017G22KT 06/M07 A3026 RMK A01 T00581065  RH  041%=      5-min Rain = 0
KTH1 192040Z 32019G24KT 06/M06 A3025 RMK A01 T00591064  RH  041%=      5-min Rain = 0
KTH1 192041Z 33017G23KT 06/M07 A3025 RMK A01 T00591067  RH  040%=      5-min Rain = 0
KTH1 192042Z 33013G18KT 06/M07 A3025 RMK A01 T00581066  RH  041%=      5-min Rain = 0
KTH1 192043Z 33013KT 06/M06 A3025 RMK A01 T00591061  RH  042%=      5-min Rain = 0
KTH1 192044Z 33015KT 06/M06 A3025 RMK A01 T00611060  RH  041%=      5-min Rain = 0
KTH1 192045Z 33020G26KT 06/M06 A3025 RMK A01 T00621062  RH  041%=      5-min Rain = 0
KTH1 192046Z 33016KT 06/M07 A3025 RMK A01 T00621065  RH  040%=      5-min Rain = 0
KTH1 192047Z 34016G21KT 06/M06 A3025 RMK A01 T00621062  RH  041%=      5-min Rain = 0
KTH1 192048Z 34018G23KT 06/M06 A3025 RMK A01 T00621064  RH  040%=      5-min Rain = 0
KTH1 192049Z 34017KT 06/M07 A3025 RMK A01 T00611065  RH  040%=      5-min Rain = 0
KTH1 192050Z 34015G24KT 06/M07 A3025 RMK A01 T00601066  RH  040%=      5-min Rain = 0
KTH1 192051Z 33015KT 06/M06 A3025 RMK A01 T00601062  RH  041%=      5-min Rain = 0
KTH1 192052Z 33019G25KT 06/M06 A3025 RMK A01 T00621063  RH  040%=      5-min Rain = 0
KTH1 192053Z 33021KT 06/M07 A3025 RMK A01 T00621065  RH  040%=      5-min Rain = 0
KTH1 192054Z 34018G24KT 06/M07 A3026 RMK A01 T00601069  RH  039%=      5-min Rain = 0
KTH1 192055Z 33020G25KT 06/M07 A3025 RMK A01 T00591070  RH  039%=      5-min Rain = 0
KTH1 192056Z 33017KT 06/M07 A3025 RMK A01 T00581068  RH  040%=      5-min Rain = 0
KTH1 192057Z 33013G18KT 06/M07 A3026 RMK A01 T00581067  RH  040%=      5-min Rain = 0
KTH1 192058Z 33019G25KT 06/M07 A3026 RMK A01 T00591065  RH  040%=      5-min Rain = 0
KTH1 192059Z 33017G22KT 06/M07 A3026 RMK A01 T00601067  RH  040%=      5-min Rain = 0
KTH1 192100Z 33014KT 06/M07 A3026 RMK A01 T00601068  RH  040%=      5-min Rain = 0
KTH1 192101Z 33012KT 06/M06 A3026 RMK A01 T00601064  RH  041%=      5-min Rain = 0
KTH1 192102Z 34015KT 06/M06 A3026 RMK A01 T00611061  RH  041%=      5-min Rain = 0
KTH1 192103Z 34016G21KT 06/M07 A3026 RMK A01 T00621065  RH  040%=      5-min Rain = 0
KTH1 192104Z 35021G26KT 06/M07 A3026 RMK A01 T00621068  RH  039%=      5-min Rain = 0
KTH1 192105Z 33018G27KT 06/M07 A3026 RMK A01 T00611069  RH  039%=      5-min Rain = 0
KTH1 192106Z 33018G24KT 06/M07 A3026 RMK A01 T00601069  RH  039%=      5-min Rain = 0
KTH1 192107Z 33015KT 06/M07 A3026 RMK A01 T00591069  RH  039%=      5-min Rain = 0
KTH1 192108Z 33017G23KT 06/M07 A3026 RMK A01 T00591069  RH  039%=      5-min Rain = 0
KTH1 192109Z 33015G24KT 06/M07 A3026 RMK A01 T00591070  RH  039%=      5-min Rain = 0
KTH1 192110Z 34015G22KT 06/M07 A3026 RMK A01 T00591066  RH  040%=      5-min Rain = 0
KTH1 192111Z 34017KT 06/M07 A3026 RMK A01 T00611067  RH  040%=      5-min Rain = 0
KTH1 192112Z 35015G22KT 06/M07 A3026 RMK A01 T00611067  RH  039%=      5-min Rain = 0
KTH1 192113Z 34016G24KT 06/M07 A3026 RMK A01 T00611065  RH  040%=      5-min Rain = 0
KTH1 192114Z 34014KT 06/M07 A3026 RMK A01 T00621065  RH  040%=      5-min Rain = 0
KTH1 192115Z 35015G21KT 06/M06 A3026 RMK A01 T00621064  RH  040%=      5-min Rain = 0
KTH1 192116Z 34013KT 06/M07 A3026 RMK A01 T00631065  RH  040%=      5-min Rain = 0
KTH1 192117Z 34014G20KT 06/M07 A3026 RMK A01 T00621065  RH  040%=      5-min Rain = 0
KTH1 192118Z 35014G21KT 06/M06 A3026 RMK A01 T00631061  RH  041%=      5-min Rain = 0
KTH1 192119Z 34015G21KT 06/M06 A3026 RMK A01 T00631063  RH  040%=      5-min Rain = 0
KTH1 192120Z 34011KT 06/M07 A3026 RMK A01 T00631065  RH  039%=      5-min Rain = 0
KTH1 192121Z 33014G21KT 06/M06 A3026 RMK A01 T00631062  RH  040%=      5-min Rain = 0
KTH1 192122Z 33021G27KT 06/M07 A3026 RMK A01 T00631065  RH  039%=      5-min Rain = 0
KTH1 192123Z 33018G23KT 06/M07 A3026 RMK A01 T00621069  RH  039%=      5-min Rain = 0
KTH1 192124Z 32018G23KT 06/M07 A3026 RMK A01 T00611068  RH  039%=      5-min Rain = 0
KTH1 192125Z 33018KT 06/M07 A3026 RMK A01 T00601066  RH  040%=      5-min Rain = 0
KTH1 192126Z 33015G20KT 06/M07 A3027 RMK A01 T00601069  RH  039%=      5-min Rain = 0
KTH1 192127Z 34019G26KT 06/M07 A3027 RMK A01 T00601070  RH  039%=      5-min Rain = 0
KTH1 192128Z 35015G24KT 06/M07 A3026 RMK A01 T00601073  RH  038%=      5-min Rain = 0
KTH1 192129Z 34018KT 06/M07 A3027 RMK A01 T00601072  RH  038%=      5-min Rain = 0
KTH1 192130Z 34014G20KT 06/M07 A3027 RMK A01 T00601072  RH  038%=      5-min Rain = 0
KTH1 192131Z 34012G20KT 06/M07 A3027 RMK A01 T00611067  RH  040%=      5-min Rain = 0
KTH1 192132Z 33012KT 06/M07 A3027 RMK A01 T00621065  RH  040%=      5-min Rain = 0
KTH1 192133Z 33013G20KT 06/M06 A3027 RMK A01 T00641063  RH  040%=      5-min Rain = 0
KTH1 192134Z 34014G19KT 06/M07 A3027 RMK A01 T00641067  RH  039%=      5-min Rain = 0
KTH1 192135Z 35014G19KT 06/M07 A3027 RMK A01 T00631068  RH  039%=      5-min Rain = 0
KTH1 192136Z 35013KT 06/M07 A3027 RMK A01 T00621066  RH  039%=      5-min Rain = 0
KTH1 192137Z 34013KT 06/M07 A3027 RMK A01 T00621068  RH  039%=      5-min Rain = 0
KTH1 192138Z 34012KT 06/M07 A3027 RMK A01 T00611070  RH  038%=      5-min Rain = 0
KTH1 192139Z 35014G21KT 06/M07 A3027 RMK A01 T00611069  RH  039%=      5-min Rain = 0
KTH1 192140Z 33017KT 06/M07 A3027 RMK A01 T00611070  RH  039%=      5-min Rain = 0
KTH1 192141Z 34013G19KT 06/M07 A3027 RMK A01 T00611069  RH  039%=      5-min Rain = 0
KTH1 192142Z 34015G21KT 06/M07 A3027 RMK A01 T00611068  RH  039%=      5-min Rain = 0
KTH1 192143Z 33016KT 06/M07 A3027 RMK A01 T00611068  RH  039%=      5-min Rain = 0
KTH1 192144Z 32016KT 06/M07 A3027 RMK A01 T00611066  RH  040%=      5-min Rain = 0
KTH1 192145Z 32015KT 06/M07 A3027 RMK A01 T00611067  RH  039%=      5-min Rain = 0
KTH1 192146Z 32017KT 06/M07 A3027 RMK A01 T00611066  RH  040%=      5-min Rain = 0
KTH1 192147Z 33017KT 06/M06 A3027 RMK A01 T00611064  RH  040%=      5-min Rain = 0
KTH1 192148Z 33019G24KT 06/M07 A3027 RMK A01 T00601070  RH  039%=      5-min Rain = 0
KTH1 192149Z 33018KT 06/M07 A3027 RMK A01 T00591071  RH  039%=      5-min Rain = 0
KTH1 192150Z 32018KT 06/M07 A3027 RMK A01 T00591069  RH  039%=      5-min Rain = 0
KTH1 192151Z 33018G24KT 06/M07 A3027 RMK A01 T00591066  RH  040%=      5-min Rain = 0
KTH1 192152Z 32016G22KT 06/M07 A3027 RMK A01 T00601068  RH  039%=      5-min Rain = 0
KTH1 192153Z 33014KT 06/M07 A3027 RMK A01 T00591066  RH  040%=      5-min Rain = 0
KTH1 192154Z 33015KT 06/M07 A3027 RMK A01 T00601067  RH  040%=      5-min Rain = 0
KTH1 192155Z 32016G21KT 06/M07 A3027 RMK A01 T00611068  RH  039%=      5-min Rain = 0
KTH1 192156Z 33015KT 06/M07 A3027 RMK A01 T00601068  RH  039%=      5-min Rain = 0
KTH1 192157Z 33017KT 06/M07 A3027 RMK A01 T00611066  RH  040%=      5-min Rain = 0
KTH1 192158Z 33014G21KT 06/M07 A3028 RMK A01 T00621066  RH  040%=      5-min Rain = 0
KTH1 192159Z 32014G21KT 06/M06 A3028 RMK A01 T00611063  RH  041%=      5-min Rain = 0
KTH1 192200Z 32016KT 06/M06 A3027 RMK A01 T00621063  RH  040%=      5-min Rain = 0
KTH1 192201Z 33015G20KT 06/M07 A3027 RMK A01 T00611066  RH  040%=      5-min Rain = 0
KTH1 192202Z 32018KT 06/M07 A3027 RMK A01 T00601067  RH  040%=      5-min Rain = 0
KTH1 192203Z 32017KT 06/M07 A3027 RMK A01 T00601066  RH  040%=      5-min Rain = 0
KTH1 192204Z 32016KT 06/M06 A3027 RMK A01 T00601064  RH  041%=      5-min Rain = 0
KTH1 192205Z 32014KT 06/M06 A3027 RMK A01 T00601064  RH  041%=      5-min Rain = 0
KTH1 192206Z 33012KT 06/M06 A3027 RMK A01 T00601064  RH  041%=      5-min Rain = 0
KTH1 192207Z 34012KT 06/M07 A3028 RMK A01 T00611066  RH  040%=      5-min Rain = 0
KTH1 192208Z 34013KT 06/M07 A3028 RMK A01 T00611067  RH  039%=      5-min Rain = 0
KTH1 192209Z 33012G17KT 06/M07 A3028 RMK A01 T00611067  RH  039%=      5-min Rain = 0
KTH1 192210Z 33016KT 06/M07 A3028 RMK A01 T00611066  RH  040%=      5-min Rain = 0
KTH1 192211Z 33015G20KT 06/M07 A3028 RMK A01 T00611069  RH  039%=      5-min Rain = 0
KTH1 192212Z 33014G19KT 06/M07 A3028 RMK A01 T00611065  RH  040%=      5-min Rain = 0
KTH1 192213Z 32014KT 06/M06 A3028 RMK A01 T00611064  RH  040%=      5-min Rain = 0
KTH1 192214Z 32016G21KT 06/M06 A3028 RMK A01 T00611064  RH  040%=      5-min Rain = 0
KTH1 192215Z 33015KT 06/M07 A3028 RMK A01 T00601068  RH  039%=      5-min Rain = 0
KTH1 192216Z 33015G21KT 06/M07 A3028 RMK A01 T00601068  RH  039%=      5-min Rain = 0
KTH1 192217Z 34018G23KT 06/M07 A3028 RMK A01 T00601069  RH  039%=      5-min Rain = 0
KTH1 192218Z 34017KT 06/M07 A3028 RMK A01 T00591072  RH  039%=      5-min Rain = 0
KTH1 192219Z 34016KT 06/M07 A3027 RMK A01 T00581070  RH  039%=      5-min Rain = 0
KTH1 192220Z 34016G21KT 06/M07 A3027 RMK A01 T00581071  RH  039%=      5-min Rain = 0
KTH1 192221Z 33015KT 06/M07 A3028 RMK A01 T00581071  RH  039%=      5-min Rain = 0
KTH1 192222Z 33018KT 06/M07 A3028 RMK A01 T00601067  RH  040%=      5-min Rain = 0
KTH1 192223Z 33019KT 06/M07 A3028 RMK A01 T00601069  RH  039%=      5-min Rain = 0
KTH1 192224Z 33018KT 06/M07 A3028 RMK A01 T00591071  RH  039%=      5-min Rain = 0
KTH1 192225Z 34013G18KT 06/M07 A3028 RMK A01 T00581070  RH  039%=      5-min Rain = 0
KTH1 192226Z 34016KT 06/M07 A3028 RMK A01 T00581071  RH  039%=      5-min Rain = 0
KTH1 192227Z 33015KT 06/M07 A3028 RMK A01 T00581071  RH  039%=      5-min Rain = 0
KTH1 192228Z 33015KT 06/M07 A3028 RMK A01 T00581069  RH  040%=      5-min Rain = 0
KTH1 192229Z 33016KT 06/M07 A3028 RMK A01 T00591068  RH  040%=      5-min Rain = 0
KTH1 192230Z 33016KT 06/M07 A3028 RMK A01 T00591070  RH  039%=      5-min Rain = 0
KTH1 192231Z 33017KT 06/M07 A3028 RMK A01 T00591071  RH  039%=      5-min Rain = 0
KTH1 192232Z 33018G23KT 06/M07 A3028 RMK A01 T00591070  RH  039%=      5-min Rain = 0
KTH1 192233Z 32017KT 06/M07 A3028 RMK A01 T00581069  RH  039%=      5-min Rain = 0
KTH1 192234Z 32019KT 06/M07 A3028 RMK A01 T00581067  RH  040%=      5-min Rain = 0
KTH1 192235Z 33015G21KT 06/M07 A3028 RMK A01 T00581067  RH  040%=      5-min Rain = 0
KTH1 192236Z 34012KT 06/M07 A3028 RMK A01 T00591067  RH  040%=      5-min Rain = 0
KTH1 192237Z 33014G21KT 06/M07 A3028 RMK A01 T00591068  RH  040%=      5-min Rain = 0
KTH1 192238Z 34014G20KT 06/M07 A3028 RMK A01 T00591070  RH  039%=      5-min Rain = 0
KTH1 192239Z 34015G21KT 06/M07 A3028 RMK A01 T00581070  RH  039%=      5-min Rain = 0
KTH1 192240Z 33016G22KT 06/M07 A3028 RMK A01 T00581070  RH  039%=      5-min Rain = 0
KTH1 192241Z 33013G20KT 06/M07 A3028 RMK A01 T00581070  RH  039%=      5-min Rain = 0
KTH1 192242Z 34017G25KT 06/M07 A3028 RMK A01 T00571070  RH  039%=      5-min Rain = 0
KTH1 192243Z 34013G18KT 06/M07 A3028 RMK A01 T00571072  RH  039%=      5-min Rain = 0
KTH1 192244Z 34011KT 06/M07 A3028 RMK A01 T00571070  RH  040%=      5-min Rain = 0
KTH1 192245Z 33014KT 06/M07 A3028 RMK A01 T00571069  RH  040%=      5-min Rain = 0
KTH1 192246Z 34012KT 06/M07 A3028 RMK A01 T00571069  RH  040%=      5-min Rain = 0
KTH1 192247Z 33016G23KT 06/M07 A3028 RMK A01 T00581068  RH  040%=      5-min Rain = 0
KTH1 192248Z 34013G18KT 06/M07 A3028 RMK A01 T00581070  RH  039%=      5-min Rain = 0
KTH1 192249Z 33018KT 06/M07 A3028 RMK A01 T00571072  RH  039%=      5-min Rain = 0
KTH1 192250Z 34015G20KT 06/M07 A3028 RMK A01 T00571074  RH  038%=      5-min Rain = 0
KTH1 192251Z 34014KT 06/M07 A3028 RMK A01 T00561073  RH  039%=      5-min Rain = 0
KTH1 192252Z 33015G22KT 06/M07 A3028 RMK A01 T00561072  RH  039%=      5-min Rain = 0
KTH1 192253Z 33019KT 06/M07 A3028 RMK A01 T00561073  RH  039%=      5-min Rain = 0
KTH1 192254Z 33015G21KT 06/M07 A3028 RMK A01 T00561072  RH  039%=      5-min Rain = 0
KTH1 192255Z 33014KT 06/M07 A3028 RMK A01 T00561069  RH  040%=      5-min Rain = 0
KTH1 192256Z 33015KT 06/M07 A3028 RMK A01 T00561070  RH  040%=      5-min Rain = 0
KTH1 192257Z 33013KT 06/M07 A3028 RMK A01 T00561069  RH  040%=      5-min Rain = 0
KTH1 192258Z 33015KT 06/M07 A3028 RMK A01 T00561070  RH  040%=      5-min Rain = 0
KTH1 192259Z 33013G18KT 06/M07 A3028 RMK A01 T00561071  RH  039%=      5-min Rain = 0
KTH1 192300Z 33010KT 06/M07 A3028 RMK A01 T00561068  RH  040%=      5-min Rain = 0
KTH1 192301Z 34010KT 06/M07 A3028 RMK A01 T00561067  RH  041%=      5-min Rain = 0
KTH1 192302Z 33013KT 06/M07 A3028 RMK A01 T00561068  RH  041%=      5-min Rain = 0
KTH1 192303Z 33014KT 06/M07 A3029 RMK A01 T00561069  RH  040%=      5-min Rain = 0
KTH1 192304Z 33012KT 06/M07 A3029 RMK A01 T00561071  RH  040%=      5-min Rain = 0
KTH1 192305Z 33011KT 06/M07 A3029 RMK A01 T00561070  RH  040%=      5-min Rain = 0
KTH1 192306Z 33011KT 06/M07 A3029 RMK A01 T00561067  RH  041%=      5-min Rain = 0
KTH1 192307Z 33012G17KT 06/M07 A3029 RMK A01 T00551067  RH  041%=      5-min Rain = 0
KTH1 192308Z 34008KT 06/M07 A3029 RMK A01 T00561066  RH  041%=      5-min Rain = 0
KTH1 192309Z 33010KT 06/M07 A3029 RMK A01 T00561065  RH  042%=      5-min Rain = 0
KTH1 192310Z 33011KT 06/M07 A3029 RMK A01 T00561066  RH  041%=      5-min Rain = 0
KTH1 192311Z 33010KT 06/M06 A3029 RMK A01 T00561063  RH  042%=      5-min Rain = 0
KTH1 192312Z 34012G18KT 06/M07 A3029 RMK A01 T00551065  RH  042%=      5-min Rain = 0
KTH1 192313Z 34013G18KT 06/M07 A3029 RMK A01 T00551067  RH  041%=      5-min Rain = 0
KTH1 192314Z 34015KT 06/M07 A3029 RMK A01 T00551068  RH  041%=      5-min Rain = 0
KTH1 192315Z 34013G18KT 06/M07 A3029 RMK A01 T00551068  RH  041%=      5-min Rain = 0
KTH1 192316Z 35014G20KT 06/M07 A3029 RMK A01 T00551067  RH  041%=      5-min Rain = 0
KTH1 192317Z 34013KT 05/M07 A3029 RMK A01 T00541066  RH  042%=      5-min Rain = 0
KTH1 192318Z 33016G21KT 05/M07 A3029 RMK A01 T00541067  RH  041%=      5-min Rain = 0
KTH1 192319Z 33013G18KT 05/M07 A3029 RMK A01 T00541069  RH  041%=      5-min Rain = 0
KTH1 192320Z 33012KT 05/M07 A3029 RMK A01 T00531069  RH  041%=      5-min Rain = 0
KTH1 192321Z 33014KT 05/M07 A3029 RMK A01 T00531068  RH  041%=      5-min Rain = 0
KTH1 192322Z 33012G17KT 05/M07 A3029 RMK A01 T00531068  RH  041%=      5-min Rain = 0
KTH1 192323Z 34014KT 05/M07 A3029 RMK A01 T00531068  RH  041%=      5-min Rain = 0
KTH1 192324Z 34012KT 05/M07 A3029 RMK A01 T00521071  RH  040%=      5-min Rain = 0
KTH1 192325Z 34013KT 05/M07 A303 RMK A01 T00521071  RH  041%=      5-min Rain = 0
KTH1 192326Z 34013G18KT 05/M07 A303 RMK A01 T00521072  RH  041%=      5-min Rain = 0
KTH1 192327Z 34009KT 05/M07 A303 RMK A01 T00511070  RH  041%=      5-min Rain = 0
KTH1 192328Z 35012KT 05/M07 A303 RMK A01 T00511068  RH  042%=      5-min Rain = 0
KTH1 192329Z 34015KT 05/M07 A303 RMK A01 T00511070  RH  041%=      5-min Rain = 0
KTH1 192330Z 35015G22KT 05/M07 A303 RMK A01 T00511072  RH  041%=      5-min Rain = 0
KTH1 192331Z 34011G17KT 05/M07 A303 RMK A01 T00501071  RH  041%=      5-min Rain = 0
KTH1 192332Z 34012G17KT 05/M07 A3029 RMK A01 T00501071  RH  041%=      5-min Rain = 0
KTH1 192333Z 34012G18KT 05/M07 A3029 RMK A01 T00491071  RH  042%=      5-min Rain = 0
KTH1 192334Z 34010G15KT 05/M07 A3029 RMK A01 T00491069  RH  042%=      5-min Rain = 0
KTH1 192335Z 34011KT 05/M07 A3029 RMK A01 T00491068  RH  043%=      5-min Rain = 0
KTH1 192336Z 34014G19KT 05/M07 A3029 RMK A01 T00491070  RH  042%=      5-min Rain = 0
KTH1 192337Z 34011KT 05/M07 A3029 RMK A01 T00491071  RH  042%=      5-min Rain = 0
KTH1 192338Z 33013KT 05/M07 A3029 RMK A01 T00481070  RH  042%=      5-min Rain = 0
KTH1 192339Z 34011KT 05/M07 A3029 RMK A01 T00481072  RH  042%=      5-min Rain = 0
KTH1 192340Z 34010G15KT 05/M07 A3029 RMK A01 T00481071  RH  042%=      5-min Rain = 0
KTH1 192341Z 34009KT 05/M07 A3029 RMK A01 T00471070  RH  042%=      5-min Rain = 0
KTH1 192342Z 33010KT 05/M07 A3029 RMK A01 T00471069  RH  043%=      5-min Rain = 0
KTH1 192343Z 34009KT 05/M07 A3029 RMK A01 T00471068  RH  043%=      5-min Rain = 0
KTH1 192344Z 34008KT 05/M07 A3029 RMK A01 T00471066  RH  044%=      5-min Rain = 0
KTH1 192345Z 34008KT 05/M07 A3029 RMK A01 T00461067  RH  044%=      5-min Rain = 0
KTH1 192346Z 35008KT 05/M07 A3029 RMK A01 T00451068  RH  044%=      5-min Rain = 0
KTH1 192347Z 35012KT 05/M07 A3029 RMK A01 T00451068  RH  044%=      5-min Rain = 0
KTH1 192348Z 34008G13KT 04/M07 A3029 RMK A01 T00441069  RH  044%=      5-min Rain = 0
KTH1 192349Z 35008G13KT 04/M07 A3029 RMK A01 T00441066  RH  045%=      5-min Rain = 0
KTH1 192350Z 35010KT 04/M07 A3029 RMK A01 T00431066  RH  045%=      5-min Rain = 0
KTH1 192351Z 34008KT 04/M07 A3029 RMK A01 T00431066  RH  045%=      5-min Rain = 0
KTH1 192352Z 34009KT 04/M07 A3029 RMK A01 T00421065  RH  046%=      5-min Rain = 0
KTH1 192353Z 35010KT 04/M07 A3029 RMK A01 T00421067  RH  045%=      5-min Rain = 0
KTH1 192354Z 34008KT 04/M07 A3029 RMK A01 T00421067  RH  045%=      5-min Rain = 0
KTH1 192355Z 34011KT 04/M07 A3029 RMK A01 T00411068  RH  045%=      5-min Rain = 0
KTH1 192356Z 34009KT 04/M07 A3029 RMK A01 T00411068  RH  045%=      5-min Rain = 0
KTH1 192357Z 35008KT 04/M07 A3029 RMK A01 T00401068  RH  045%=      5-min Rain = 0
KTH1 192358Z 35008KT 04/M07 A3029 RMK A01 T00401065  RH  046%=      5-min Rain = 0
KTH1 192359Z 35008KT 04/M07 A3029 RMK A01 T00391065  RH  047%=      5-min Rain = 0
KTH1 200000Z 34008KT 04/M07 A3029 RMK A01 T00381065  RH  047%=      5-min Rain = 0
KTH1 200001Z 35009KT 04/M07 A3029 RMK A01 T00381066  RH  047%=      5-min Rain = 0
KTH1 200002Z 35009KT 04/M07 A3029 RMK A01 T00381067  RH  046%=      5-min Rain = 0
KTH1 200003Z 35007KT 04/M07 A3029 RMK A01 T00381067  RH  046%=      5-min Rain = 0
KTH1 200004Z 35008KT 04/M07 A3029 RMK A01 T00381065  RH  047%=      5-min Rain = 0
KTH1 200005Z 35008KT 04/M07 A3029 RMK A01 T00371066  RH  047%=      5-min Rain = 0
KTH1 200006Z 35008G13KT 04/M07 A3029 RMK A01 T00371066  RH  047%=      5-min Rain = 0
KTH1 200007Z 35007KT 04/M07 A3029 RMK A01 T00361066  RH  047%=      5-min Rain = 0
KTH1 200008Z 34009KT 04/M07 A3029 RMK A01 T00361066  RH  047%=      5-min Rain = 0
KTH1 200009Z 35008KT 04/M07 A3029 RMK A01 T00361066  RH  047%=      5-min Rain = 0
KTH1 200010Z 35007KT 04/M07 A3029 RMK A01 T00351066  RH  048%=      5-min Rain = 0
KTH1 200011Z 35006KT 04/M07 A3029 RMK A01 T00351065  RH  048%=      5-min Rain = 0
KTH1 200012Z 35006KT 03/M06 A3029 RMK A01 T00341064  RH  049%=      5-min Rain = 0
KTH1 200013Z 34007KT 03/M07 A303 RMK A01 T00331065  RH  049%=      5-min Rain = 0
KTH1 200014Z 35007KT 03/M07 A303 RMK A01 T00331066  RH  048%=      5-min Rain = 0
KTH1 200015Z 36008KT 03/M07 A303 RMK A01 T00331066  RH  048%=      5-min Rain = 0
KTH1 200016Z 35007KT 03/M07 A303 RMK A01 T00331067  RH  048%=      5-min Rain = 0
KTH1 200017Z 36006KT 03/M07 A303 RMK A01 T00321067  RH  048%=      5-min Rain = 0
KTH1 200018Z 35006KT 03/M07 A303 RMK A01 T00311066  RH  049%=      5-min Rain = 0
KTH1 200019Z 36007KT 03/M07 A303 RMK A01 T00311066  RH  049%=      5-min Rain = 0
KTH1 200020Z 36005KT 03/M07 A303 RMK A01 T00301066  RH  049%=      5-min Rain = 0
KTH1 200021Z 36006KT 03/M07 A303 RMK A01 T00301066  RH  049%=      5-min Rain = 0
KTH1 200022Z 35006KT 03/M07 A303 RMK A01 T00301066  RH  049%=      5-min Rain = 0
KTH1 200023Z 35006KT 03/M07 A303 RMK A01 T00291066  RH  049%=      5-min Rain = 0
KTH1 200024Z 34007KT 03/M07 A303 RMK A01 T00291067  RH  049%=      5-min Rain = 0
KTH1 200025Z 35007KT 03/M07 A303 RMK A01 T00291067  RH  049%=      5-min Rain = 0
KTH1 200026Z 35006KT 03/M07 A303 RMK A01 T00291067  RH  049%=      5-min Rain = 0
KTH1 200027Z 35005KT 03/M07 A303 RMK A01 T00291065  RH  050%=      5-min Rain = 0
KTH1 200028Z 35006KT 03/M06 A303 RMK A01 T00281064  RH  051%=      5-min Rain = 0
KTH1 200029Z 35005KT 03/M06 A303 RMK A01 T00281063  RH  051%=      5-min Rain = 0
KTH1 200030Z 36004KT 03/M06 A303 RMK A01 T00271063  RH  052%=      5-min Rain = 0
KTH1 200031Z 36006KT 03/M06 A303 RMK A01 T00261063  RH  052%=      5-min Rain = 0
KTH1 200032Z 35006KT 03/M06 A303 RMK A01 T00261063  RH  052%=      5-min Rain = 0
KTH1 200033Z 35005KT 03/M06 A303 RMK A01 T00251063  RH  052%=      5-min Rain = 0
KTH1 200034Z 35005KT 03/M06 A303 RMK A01 T00251063  RH  052%=      5-min Rain = 0
KTH1 200035Z 36006KT 03/M06 A303 RMK A01 T00251063  RH  052%=      5-min Rain = 0
KTH1 200036Z 35006KT 02/M06 A303 RMK A01 T00241062  RH  053%=      5-min Rain = 0
KTH1 200037Z 35006KT 02/M06 A303 RMK A01 T00241062  RH  053%=      5-min Rain = 0
KTH1 200038Z 34006KT 02/M06 A3031 RMK A01 T00241062  RH  053%=      5-min Rain = 0
KTH1 200039Z 34006KT 02/M06 A3031 RMK A01 T00241061  RH  053%=      5-min Rain = 0
KTH1 200040Z 34006KT 02/M06 A3031 RMK A01 T00241061  RH  053%=      5-min Rain = 0
KTH1 200041Z 33005KT 02/M06 A3031 RMK A01 T00241060  RH  054%=      5-min Rain = 0
KTH1 200042Z 34005KT 02/M06 A3031 RMK A01 T00241061  RH  053%=      5-min Rain = 0
KTH1 200043Z 34006KT 02/M06 A3031 RMK A01 T00241060  RH  054%=      5-min Rain = 0
KTH1 200044Z 34006KT 02/M06 A3031 RMK A01 T00241062  RH  053%=      5-min Rain = 0
KTH1 200045Z 34006KT 02/M06 A3031 RMK A01 T00241063  RH  053%=      5-min Rain = 0
KTH1 200046Z 34005KT 02/M06 A3031 RMK A01 T00231063  RH  053%=      5-min Rain = 0
KTH1 200047Z 34006KT 02/M06 A3031 RMK A01 T00231063  RH  053%=      5-min Rain = 0
KTH1 200048Z 34006KT 02/M06 A3031 RMK A01 T00231063  RH  053%=      5-min Rain = 0
KTH1 200049Z 34006KT 02/M07 A3031 RMK A01 T00231065  RH  052%=      5-min Rain = 0
KTH1 200050Z 34005KT 02/M07 A3031 RMK A01 T00231066  RH  052%=      5-min Rain = 0
KTH1 200051Z 34005KT 02/M06 A3031 RMK A01 T00221064  RH  053%=      5-min Rain = 0
KTH1 200052Z 34006KT 02/M06 A3031 RMK A01 T00221064  RH  053%=      5-min Rain = 0
KTH1 200053Z 34005KT 02/M06 A3031 RMK A01 T00221064  RH  053%=      5-min Rain = 0
KTH1 200054Z 34005KT 02/M06 A3031 RMK A01 T00211063  RH  054%=      5-min Rain = 0
KTH1 200055Z 33005KT 02/M06 A3031 RMK A01 T00211062  RH  054%=      5-min Rain = 0
KTH1 200056Z 34004KT 02/M06 A3031 RMK A01 T00211063  RH  054%=      5-min Rain = 0
KTH1 200057Z 34005KT 02/M06 A3031 RMK A01 T00211062  RH  054%=      5-min Rain = 0
KTH1 200058Z 34006KT 02/M06 A3031 RMK A01 T00211062  RH  054%=      5-min Rain = 0
KTH1 200059Z 34005KT 02/M06 A3031 RMK A01 T00201062  RH  054%=      5-min Rain = 0
KTH1 200100Z 34005KT 02/M06 A3031 RMK A01 T00201064  RH  054%=      5-min Rain = 0
KTH1 200101Z 34006KT 02/M06 A3031 RMK A01 T00201063  RH  054%=      5-min Rain = 0
KTH1 200102Z 34006KT 02/M06 A3031 RMK A01 T00191064  RH  054%=      5-min Rain = 0
KTH1 200103Z 33005KT 02/M06 A3031 RMK A01 T00191062  RH  055%=      5-min Rain = 0
KTH1 200104Z 34006KT 02/M06 A3031 RMK A01 T00191062  RH  055%=      5-min Rain = 0
KTH1 200105Z 34006KT 02/M06 A3031 RMK A01 T00191063  RH  055%=      5-min Rain = 0
KTH1 200106Z 34006KT 02/M06 A3031 RMK A01 T00191064  RH  054%=      5-min Rain = 0
KTH1 200107Z 34005KT 02/M06 A3031 RMK A01 T00191064  RH  054%=      5-min Rain = 0
KTH1 200108Z 34006KT 02/M06 A3031 RMK A01 T00181064  RH  054%=      5-min Rain = 0
KTH1 200109Z 33006KT 02/M06 A3031 RMK A01 T00181063  RH  055%=      5-min Rain = 0
KTH1 200110Z 34005KT 02/M06 A3031 RMK A01 T00181062  RH  055%=      5-min Rain = 0
KTH1 200111Z 33006KT 02/M06 A3031 RMK A01 T00181062  RH  055%=      5-min Rain = 0
KTH1 200112Z 33006KT 02/M06 A3031 RMK A01 T00181063  RH  055%=      5-min Rain = 0
KTH1 200113Z 33006KT 02/M06 A3031 RMK A01 T00181064  RH  055%=      5-min Rain = 0
KTH1 200114Z 34005KT 02/M06 A3031 RMK A01 T00181063  RH  055%=      5-min Rain = 0
KTH1 200115Z 34005KT 02/M06 A3031 RMK A01 T00171063  RH  055%=      5-min Rain = 0
KTH1 200116Z 34005KT 02/M07 A3031 RMK A01 T00171065  RH  054%=      5-min Rain = 0
KTH1 200117Z 34005KT 02/M07 A3031 RMK A01 T00171065  RH  055%=      5-min Rain = 0
KTH1 200118Z 34005KT 02/M07 A3031 RMK A01 T00161065  RH  055%=      5-min Rain = 0
KTH1 200119Z 34005KT 02/M06 A3031 RMK A01 T00161064  RH  056%=      5-min Rain = 0
KTH1 200120Z 33004KT 02/M06 A3031 RMK A01 T00151061  RH  057%=      5-min Rain = 0
KTH1 200121Z 34005KT 02/M06 A3031 RMK A01 T00151059  RH  058%=      5-min Rain = 0
KTH1 200122Z 33005KT 01/M06 A3031 RMK A01 T00141058  RH  059%=      5-min Rain = 0
KTH1 200123Z 34005KT 01/M06 A3031 RMK A01 T00141059  RH  058%=      5-min Rain = 0
KTH1 200124Z 33005KT 01/M06 A3031 RMK A01 T00141059  RH  058%=      5-min Rain = 0
KTH1 200125Z 34005KT 01/M06 A3031 RMK A01 T00141059  RH  058%=      5-min Rain = 0
KTH1 200126Z 34005KT 01/M06 A3031 RMK A01 T00141060  RH  058%=      5-min Rain = 0
KTH1 200127Z 34005KT 01/M06 A3031 RMK A01 T00141062  RH  057%=      5-min Rain = 0
KTH1 200128Z 34005KT 01/M06 A3031 RMK A01 T00131060  RH  058%=      5-min Rain = 0
KTH1 200129Z 33005KT 01/M06 A3031 RMK A01 T00131060  RH  058%=      5-min Rain = 0
KTH1 200130Z 33005KT 01/M06 A3031 RMK A01 T00131060  RH  058%=      5-min Rain = 0
KTH1 200131Z 33006KT 01/M06 A3031 RMK A01 T00131061  RH  058%=      5-min Rain = 0
KTH1 200132Z 34005KT 01/M06 A3031 RMK A01 T00131061  RH  058%=      5-min Rain = 0
KTH1 200133Z 34006KT 01/M06 A3031 RMK A01 T00131061  RH  058%=      5-min Rain = 0
KTH1 200134Z 34006KT 01/M06 A3031 RMK A01 T00131062  RH  057%=      5-min Rain = 0
KTH1 200135Z 34006KT 01/M06 A3031 RMK A01 T00131063  RH  057%=      5-min Rain = 0
KTH1 200136Z 35006KT 01/M06 A3031 RMK A01 T00131063  RH  057%=      5-min Rain = 0
KTH1 200137Z 34006KT 01/M06 A3031 RMK A01 T00121062  RH  058%=      5-min Rain = 0
KTH1 200138Z 35006KT 01/M06 A3032 RMK A01 T00101062  RH  058%=      5-min Rain = 0
KTH1 200139Z 35005KT 01/M06 A3032 RMK A01 T00091061  RH  059%=      5-min Rain = 0
KTH1 200140Z 35005KT 01/M06 A3032 RMK A01 T00081061  RH  060%=      5-min Rain = 0
KTH1 200141Z 35005KT 01/M06 A3032 RMK A01 T00071061  RH  060%=      5-min Rain = 0
KTH1 200142Z 35005KT 01/M06 A3032 RMK A01 T00071061  RH  061%=      5-min Rain = 0
KTH1 200143Z 36005KT 01/M06 A3032 RMK A01 T00061059  RH  061%=      5-min Rain = 0
KTH1 200144Z 35005KT 01/M06 A3032 RMK A01 T00061059  RH  062%=      5-min Rain = 0
KTH1 200145Z 34004KT 01/M06 A3032 RMK A01 T00061058  RH  062%=      5-min Rain = 0
KTH1 200146Z 34004KT 01/M06 A3032 RMK A01 T00061058  RH  062%=      5-min Rain = 0
KTH1 200147Z 35004KT 01/M06 A3032 RMK A01 T00061057  RH  063%=      5-min Rain = 0
KTH1 200148Z 35004KT 01/M06 A3032 RMK A01 T00061057  RH  063%=      5-min Rain = 0
KTH1 200149Z 34005KT 01/M06 A3032 RMK A01 T00071057  RH  062%=      5-min Rain = 0
KTH1 200150Z 34005KT 01/M06 A3032 RMK A01 T00061058  RH  062%=      5-min Rain = 0
KTH1 200151Z 33004KT 01/M06 A3032 RMK A01 T00071057  RH  063%=      5-min Rain = 0
KTH1 200152Z 34004KT 01/M06 A3032 RMK A01 T00071056  RH  063%=      5-min Rain = 0
KTH1 200153Z 33005KT 01/M06 A3032 RMK A01 T00071058  RH  062%=      5-min Rain = 0
KTH1 200154Z 33004KT 01/M06 A3033 RMK A01 T00081058  RH  061%=      5-min Rain = 0
KTH1 200155Z 33004KT 01/M06 A3033 RMK A01 T00081060  RH  060%=      5-min Rain = 0
KTH1 200156Z 34004KT 01/M06 A3033 RMK A01 T00081060  RH  060%=      5-min Rain = 0
KTH1 200157Z 33003KT 01/M06 A3033 RMK A01 T00081061  RH  060%=      5-min Rain = 0
KTH1 200158Z 34004KT 01/M06 A3033 RMK A01 T00081062  RH  060%=      5-min Rain = 0
KTH1 200159Z 34005KT 01/M06 A3033 RMK A01 T00081062  RH  060%=      5-min Rain = 0
KTH1 200200Z 34005KT 01/M06 A3033 RMK A01 T00081061  RH  060%=      5-min Rain = 0
KTH1 200201Z 34004KT 01/M06 A3033 RMK A01 T00071061  RH  060%=      5-min Rain = 0
KTH1 200202Z 34005KT 01/M06 A3033 RMK A01 T00071061  RH  060%=      5-min Rain = 0
KTH1 200203Z 34005KT 01/M06 A3034 RMK A01 T00071061  RH  060%=      5-min Rain = 0
KTH1 200204Z 34004KT 01/M06 A3034 RMK A01 T00071061  RH  060%=      5-min Rain = 0
KTH1 200205Z 34004KT 01/M06 A3034 RMK A01 T00071060  RH  061%=      5-min Rain = 0
KTH1 200206Z 35005KT 01/M06 A3034 RMK A01 T00061060  RH  061%=      5-min Rain = 0
KTH1 200207Z 35004KT 01/M06 A3034 RMK A01 T00061061  RH  061%=      5-min Rain = 0
KTH1 200208Z 35005KT 01/M06 A3034 RMK A01 T00051061  RH  061%=      5-min Rain = 0
KTH1 200209Z 00005KT 00/M06 A3034 RMK A01 T00041062  RH  061%=      5-min Rain = 0
KTH1 200210Z 00005KT 00/M06 A3034 RMK A01 T00031063  RH  061%=      5-min Rain = 0
KTH1 200211Z 01005KT 00/M06 A3034 RMK A01 T00021063  RH  061%=      5-min Rain = 0
KTH1 200212Z 00005KT 00/M06 A3033 RMK A01 T00021063  RH  061%=      5-min Rain = 0
KTH1 200213Z 01004KT 00/M06 A3033 RMK A01 T00021064  RH  061%=      5-min Rain = 0
KTH1 200214Z 36005KT 00/M06 A3033 RMK A01 T00021063  RH  061%=      5-min Rain = 0
KTH1 200215Z 00005KT 00/M06 A3033 RMK A01 T00021063  RH  061%=      5-min Rain = 0
KTH1 200216Z 36005KT 00/M06 A3033 RMK A01 T00021063  RH  062%=      5-min Rain = 0
KTH1 200217Z 36004KT 00/M06 A3033 RMK A01 T00021062  RH  062%=      5-min Rain = 0
KTH1 200218Z 35004KT 00/M06 A3033 RMK A01 T00021062  RH  062%=      5-min Rain = 0
KTH1 200219Z 35004KT 00/M06 A3033 RMK A01 T00021060  RH  063%=      5-min Rain = 0
KTH1 200220Z 35004KT 00/M06 A3033 RMK A01 T00011059  RH  064%=      5-min Rain = 0
KTH1 200221Z 34004KT 00/M06 A3033 RMK A01 T00011058  RH  065%=      5-min Rain = 0
KTH1 200222Z 35004KT 00/M06 A3033 RMK A01 T00011058  RH  065%=      5-min Rain = 0
KTH1 200223Z 34004KT 00/M06 A3033 RMK A01 T00011058  RH  065%=      5-min Rain = 0
KTH1 200224Z 34004KT 00/M06 A3033 RMK A01 T00011058  RH  065%=      5-min Rain = 0
KTH1 200225Z 35004KT 00/M06 A3033 RMK A01 T00011058  RH  064%=      5-min Rain = 0
KTH1 200226Z 34005KT 00/M06 A3033 RMK A01 T00011058  RH  064%=      5-min Rain = 0
KTH1 200227Z 34004KT 00/M06 A3033 RMK A01 T00011059  RH  064%=      5-min Rain = 0
KTH1 200228Z 35004KT 00/M06 A3033 RMK A01 T00021060  RH  063%=      5-min Rain = 0
KTH1 200229Z 35004KT 00/M06 A3033 RMK A01 T00021059  RH  063%=      5-min Rain = 0
KTH1 200230Z 36004KT 00/M06 A3033 RMK A01 T00021059  RH  064%=      5-min Rain = 0
KTH1 200231Z 00003KT 00/M06 A3032 RMK A01 T00011060  RH  064%=      5-min Rain = 0
KTH1 200232Z 01004KT 00/06 A3032 RMK A01 T00000-60  RH  064%=      5-min Rain = 0
KTH1 200233Z 01003KT M00/M06 A3032 RMK A01 T10011061  RH  064%=      5-min Rain = 0
KTH1 200234Z 01003KT M00/M06 A3032 RMK A01 T10011061  RH  064%=      5-min Rain = 0
KTH1 200235Z 02003KT M00/M06 A3032 RMK A01 T10011061  RH  064%=      5-min Rain = 0
KTH1 200236Z 02004KT M00/M06 A3032 RMK A01 T10021062  RH  064%=      5-min Rain = 0
KTH1 200237Z 03004KT M00/M06 A3032 RMK A01 T10011062  RH  064%=      5-min Rain = 0
KTH1 200238Z 02003KT M00/M06 A3032 RMK A01 T10011062  RH  064%=      5-min Rain = 0
KTH1 200239Z 02004KT M00/M06 A3032 RMK A01 T10021063  RH  063%=      5-min Rain = 0
KTH1 200240Z 02003KT M00/M06 A3032 RMK A01 T10021064  RH  063%=      5-min Rain = 0
KTH1 200241Z 02003KT M00/M06 A3032 RMK A01 T10011064  RH  063%=      5-min Rain = 0
KTH1 200242Z 02003KT 00/06 A3032 RMK A01 T00-00-64  RH  062%=      5-min Rain = 0
KTH1 200243Z 02002KT 00/06 A3033 RMK A01 T00-00-64  RH  062%=      5-min Rain = 0
KTH1 200244Z 03003KT 00/06 A3033 RMK A01 T00-00-64  RH  062%=      5-min Rain = 0
KTH1 200245Z 03003KT 00/07 A3032 RMK A01 T00-00-65  RH  062%=      5-min Rain = 0
KTH1 200246Z 04004KT 00/07 A3032 RMK A01 T00000-65  RH  062%=      5-min Rain = 0
KTH1 200247Z 03002KT 00/M07 A3032 RMK A01 T00011065  RH  061%=      5-min Rain = 0
KTH1 200248Z 04003KT 00/M07 A3033 RMK A01 T00021065  RH  061%=      5-min Rain = 0
KTH1 200249Z 04003KT 00/M07 A3033 RMK A01 T00031065  RH  060%=      5-min Rain = 0
KTH1 200250Z 04003KT 00/M07 A3033 RMK A01 T00031065  RH  060%=      5-min Rain = 0
KTH1 200251Z 04003KT 00/M07 A3033 RMK A01 T00031065  RH  060%=      5-min Rain = 0
KTH1 200252Z 04003KT 00/M07 A3033 RMK A01 T00031065  RH  060%=      5-min Rain = 0
KTH1 200253Z 03003KT 00/M07 A3033 RMK A01 T00031065  RH  060%=      5-min Rain = 0
KTH1 200254Z 04003KT 00/M07 A3033 RMK A01 T00041065  RH  060%=      5-min Rain = 0
KTH1 200255Z 03003KT 00/M07 A3033 RMK A01 T00031066  RH  060%=      5-min Rain = 0
KTH1 200256Z 03004KT 00/M07 A3032 RMK A01 T00031065  RH  060%=      5-min Rain = 0
KTH1 200257Z 04004KT 00/M07 A3032 RMK A01 T00031065  RH  060%=      5-min Rain = 0
KTH1 200258Z 03003KT 00/M07 A3032 RMK A01 T00031065  RH  060%=      5-min Rain = 0
KTH1 200259Z 03003KT 00/M07 A3032 RMK A01 T00031065  RH  061%=      5-min Rain = 0
KTH1 200300Z 02003KT 00/M06 A3032 RMK A01 T00021064  RH  061%=      5-min Rain = 0
KTH1 200301Z 01003KT 00/M07 A3032 RMK A01 T00011065  RH  061%=      5-min Rain = 0
KTH1 200302Z 01004KT 00/M07 A3032 RMK A01 T00011066  RH  061%=      5-min Rain = 0
KTH1 200303Z 34003KT 00/M07 A3032 RMK A01 T00011066  RH  061%=      5-min Rain = 0
KTH1 200304Z 33002KT 00/M07 A3032 RMK A01 T00011065  RH  061%=      5-min Rain = 0
KTH1 200305Z 32002KT 00/M06 A3032 RMK A01 T00011063  RH  062%=      5-min Rain = 0
KTH1 200306Z 32002KT 00/M06 A3032 RMK A01 T00021059  RH  064%=      5-min Rain = 0
KTH1 200307Z 29003KT 00/M06 A3032 RMK A01 T00021058  RH  064%=      5-min Rain = 0
KTH1 200308Z 30003KT 00/M06 A3032 RMK A01 T00031056  RH  065%=      5-min Rain = 0
KTH1 200309Z 31003KT 00/M05 A3032 RMK A01 T00041053  RH  066%=      5-min Rain = 0
KTH1 200310Z 31003KT 00/M05 A3032 RMK A01 T00041054  RH  065%=      5-min Rain = 0
KTH1 200311Z 33003KT 01/M05 A3032 RMK A01 T00051052  RH  066%=      5-min Rain = 0
KTH1 200312Z 32002KT 01/M05 A3032 RMK A01 T00051054  RH  065%=      5-min Rain = 0
KTH1 200313Z 33002KT 01/M06 A3032 RMK A01 T00051057  RH  063%=      5-min Rain = 0
KTH1 200314Z 34002KT 01/M06 A3032 RMK A01 T00051059  RH  062%=      5-min Rain = 0
KTH1 200315Z 33003KT 01/M06 A3032 RMK A01 T00051061  RH  062%=      5-min Rain = 0
KTH1 200316Z 33002KT 01/M06 A3032 RMK A01 T00051062  RH  061%=      5-min Rain = 0
KTH1 200317Z 34002KT 00/M06 A3032 RMK A01 T00041062  RH  061%=      5-min Rain = 0
KTH1 200318Z 34002KT 00/M06 A3032 RMK A01 T00041063  RH  061%=      5-min Rain = 0
KTH1 200319Z 35002KT 00/M06 A3032 RMK A01 T00031064  RH  060%=      5-min Rain = 0
KTH1 200320Z 35002KT 00/M07 A3033 RMK A01 T00031065  RH  060%=      5-min Rain = 0
KTH1 200321Z 00002KT 00/M07 A3033 RMK A01 T00021066  RH  060%=      5-min Rain = 0
KTH1 200322Z 35002KT 00/M07 A3033 RMK A01 T00021066  RH  060%=      5-min Rain = 0
KTH1 200323Z 01002KT 00/M07 A3033 RMK A01 T00021065  RH  061%=      5-min Rain = 0
KTH1 200324Z 34001KT 00/M07 A3033 RMK A01 T00011065  RH  061%=      5-min Rain = 0
KTH1 200325Z 34001KT 00/M07 A3033 RMK A01 T00011066  RH  061%=      5-min Rain = 0
KTH1 200326Z 33001KT 00/07 A3033 RMK A01 T00000-66  RH  061%=      5-min Rain = 0
KTH1 200327Z 33001KT 00/07 A3033 RMK A01 T00-00-66  RH  061%=      5-min Rain = 0
KTH1 200328Z 32001KT M00/M07 A3033 RMK A01 T10011066  RH  061%=      5-min Rain = 0
KTH1 200329Z 33001KT M00/M07 A3033 RMK A01 T10011066  RH  062%=      5-min Rain = 0
KTH1 200330Z 32001KT M00/M07 A3033 RMK A01 T10011065  RH  062%=      5-min Rain = 0
KTH1 200331Z 34001KT M00/M06 A3033 RMK A01 T10011064  RH  062%=      5-min Rain = 0
KTH1 200332Z 33002KT M00/M06 A3033 RMK A01 T10011064  RH  063%=      5-min Rain = 0
KTH1 200333Z 33002KT M00/M06 A3033 RMK A01 T10011063  RH  063%=      5-min Rain = 0
KTH1 200334Z 34002KT M00/M06 A3033 RMK A01 T10011062  RH  064%=      5-min Rain = 0
KTH1 200335Z 34002KT M00/M06 A3034 RMK A01 T10011063  RH  063%=      5-min Rain = 0
KTH1 200336Z 34002KT 00/07 A3034 RMK A01 T00-00-65  RH  062%=      5-min Rain = 0
KTH1 200337Z 34002KT 00/07 A3034 RMK A01 T00-00-66  RH  061%=      5-min Rain = 0
KTH1 200338Z 34002KT 00/07 A3034 RMK A01 T00000-67  RH  061%=      5-min Rain = 0
KTH1 200339Z 34002KT 00/07 A3034 RMK A01 T00000-67  RH  061%=      5-min Rain = 0
KTH1 200340Z 35002KT 00/07 A3034 RMK A01 T00000-66  RH  061%=      5-min Rain = 0
KTH1 200341Z 00002KT 00/07 A3034 RMK A01 T00-00-66  RH  061%=      5-min Rain = 0
KTH1 200342Z 00002KT M00/M07 A3035 RMK A01 T10011066  RH  061%=      5-min Rain = 0
KTH1 200343Z 36002KT M00/M07 A3035 RMK A01 T10011066  RH  062%=      5-min Rain = 0
KTH1 200344Z 00002KT M00/M07 A3035 RMK A01 T10021067  RH  062%=      5-min Rain = 0
KTH1 200345Z 00003KT M00/M07 A3035 RMK A01 T10031067  RH  062%=      5-min Rain = 0
KTH1 200346Z 36003KT M00/M07 A3035 RMK A01 T10031067  RH  062%=      5-min Rain = 0
KTH1 200347Z 36002KT M00/M07 A3035 RMK A01 T10031066  RH  062%=      5-min Rain = 0
KTH1 200348Z 00002KT M00/M07 A3035 RMK A01 T10041066  RH  063%=      5-min Rain = 0
KTH1 200349Z 00003KT M01/M07 A3035 RMK A01 T10051066  RH  063%=      5-min Rain = 0
KTH1 200350Z 35002KT M01/M07 A3034 RMK A01 T10051066  RH  063%=      5-min Rain = 0
KTH1 200351Z 36003KT M01/M07 A3035 RMK A01 T10051066  RH  063%=      5-min Rain = 0
KTH1 200352Z 00003KT M01/M07 A3035 RMK A01 T10051066  RH  064%=      5-min Rain = 0
KTH1 200353Z 35003KT M01/M07 A3035 RMK A01 T10051066  RH  064%=      5-min Rain = 0
KTH1 200354Z 35003KT M01/M07 A3035 RMK A01 T10051066  RH  064%=      5-min Rain = 0
KTH1 200355Z 35003KT M01/M07 A3035 RMK A01 T10061065  RH  064%=      5-min Rain = 0
KTH1 200356Z 35003KT M01/M07 A3036 RMK A01 T10061065  RH  065%=      5-min Rain = 0
KTH1 200357Z 35004KT M01/M07 A3036 RMK A01 T10071065  RH  065%=      5-min Rain = 0
KTH1 200358Z 35004KT M01/M06 A3036 RMK A01 T10081064  RH  065%=      5-min Rain = 0
KTH1 200359Z 36003KT M01/M06 A3036 RMK A01 T10081064  RH  066%=      5-min Rain = 0
KTH1 200400Z 01004KT M01/M06 A3036 RMK A01 T10091064  RH  067%=      5-min Rain = 0
KTH1 200401Z 01004KT M01/M06 A3036 RMK A01 T10101064  RH  067%=      5-min Rain = 0
KTH1 200402Z 02004KT M01/M06 A3035 RMK A01 T10111064  RH  067%=      5-min Rain = 0
KTH1 200403Z 02004KT M01/M06 A3035 RMK A01 T10111062  RH  068%=      5-min Rain = 0
KTH1 200404Z 02005KT M01/M06 A3035 RMK A01 T10111061  RH  069%=      5-min Rain = 0
KTH1 200405Z 02004KT M01/M06 A3035 RMK A01 T10121061  RH  069%=      5-min Rain = 0
KTH1 200406Z 02005KT M01/M06 A3035 RMK A01 T10111062  RH  068%=      5-min Rain = 0
KTH1 200407Z 02004KT M01/M06 A3036 RMK A01 T10101063  RH  067%=      5-min Rain = 0
KTH1 200408Z 02004KT M01/M06 A3036 RMK A01 T10101063  RH  067%=      5-min Rain = 0
KTH1 200409Z 02004KT M01/M06 A3036 RMK A01 T10101064  RH  067%=      5-min Rain = 0
KTH1 200410Z 01004KT M01/M06 A3036 RMK A01 T10091064  RH  066%=      5-min Rain = 0
KTH1 200411Z 02003KT M01/M06 A3036 RMK A01 T10091064  RH  066%=      5-min Rain = 0
KTH1 200412Z 02004KT M01/M06 A3036 RMK A01 T10091064  RH  066%=      5-min Rain = 0
KTH1 200413Z 02003KT M01/M06 A3036 RMK A01 T10091064  RH  066%=      5-min Rain = 0
KTH1 200414Z 02004KT M01/M06 A3036 RMK A01 T10091064  RH  066%=      5-min Rain = 0
KTH1 200415Z 03003KT M01/M07 A3036 RMK A01 T10091065  RH  066%=      5-min Rain = 0
KTH1 200416Z 02003KT M01/M06 A3036 RMK A01 T10081064  RH  066%=      5-min Rain = 0
KTH1 200417Z 02004KT M01/M06 A3036 RMK A01 T10091064  RH  066%=      5-min Rain = 0
KTH1 200418Z 02004KT M01/M06 A3036 RMK A01 T10091064  RH  066%=      5-min Rain = 0
KTH1 200419Z 01003KT M01/M06 A3036 RMK A01 T10091064  RH  066%=      5-min Rain = 0
KTH1 200420Z 02004KT M01/M06 A3036 RMK A01 T10091064  RH  066%=      5-min Rain = 0
KTH1 200421Z 02004KT M01/M06 A3036 RMK A01 T10091064  RH  066%=      5-min Rain = 0
KTH1 200422Z 02004KT M01/M06 A3036 RMK A01 T10091064  RH  066%=      5-min Rain = 0
KTH1 200423Z 02004KT M01/M06 A3036 RMK A01 T10091064  RH  066%=      5-min Rain = 0
KTH1 200424Z 02004KT M01/M06 A3036 RMK A01 T10091064  RH  066%=      5-min Rain = 0
KTH1 200425Z 01004KT M01/M06 A3036 RMK A01 T10091064  RH  066%=      5-min Rain = 0
KTH1 200426Z 01003KT M01/M06 A3036 RMK A01 T10091064  RH  067%=      5-min Rain = 0
KTH1 200427Z 01003KT M01/M06 A3036 RMK A01 T10101064  RH  067%=      5-min Rain = 0
KTH1 200428Z 01003KT M01/M06 A3036 RMK A01 T10101064  RH  067%=      5-min Rain = 0
KTH1 200429Z 01003KT M01/M06 A3037 RMK A01 T10101064  RH  067%=      5-min Rain = 0
KTH1 200430Z 02003KT M01/M06 A3037 RMK A01 T10111064  RH  067%=      5-min Rain = 0
KTH1 200431Z 01002KT M01/M06 A3037 RMK A01 T10111064  RH  067%=      5-min Rain = 0
KTH1 200432Z 02002KT M01/M06 A3037 RMK A01 T10111064  RH  067%=      5-min Rain = 0
KTH1 200433Z 01003KT M01/M06 A3037 RMK A01 T10111064  RH  067%=      5-min Rain = 0
KTH1 200434Z 02002KT M01/M06 A3037 RMK A01 T10111064  RH  067%=      5-min Rain = 0
KTH1 200435Z 03003KT M01/M06 A3037 RMK A01 T10101064  RH  067%=      5-min Rain = 0
KTH1 200436Z 04003KT M01/M07 A3037 RMK A01 T10101065  RH  067%=      5-min Rain = 0
KTH1 200437Z 04003KT M01/M06 A3037 RMK A01 T10101064  RH  067%=      5-min Rain = 0
KTH1 200438Z 04004KT M01/M07 A3037 RMK A01 T10091065  RH  066%=      5-min Rain = 0
KTH1 200439Z 04004KT M01/M07 A3037 RMK A01 T10081065  RH  066%=      5-min Rain = 0
KTH1 200440Z 04005KT M01/M07 A3037 RMK A01 T10081065  RH  066%=      5-min Rain = 0
KTH1 200441Z 04005KT M01/M07 A3037 RMK A01 T10081065  RH  066%=      5-min Rain = 0
KTH1 200442Z 04005KT M01/M07 A3037 RMK A01 T10081065  RH  065%=      5-min Rain = 0
KTH1 200443Z 04005KT M01/M07 A3036 RMK A01 T10071065  RH  065%=      5-min Rain = 0
KTH1 200444Z 04005KT M01/M07 A3037 RMK A01 T10071066  RH  065%=      5-min Rain = 0
KTH1 200445Z 04005KT M01/M07 A3037 RMK A01 T10071065  RH  065%=      5-min Rain = 0
KTH1 200446Z 03005KT M01/M07 A3037 RMK A01 T10071065  RH  065%=      5-min Rain = 0
KTH1 200447Z 03004KT M01/M07 A3036 RMK A01 T10071066  RH  065%=      5-min Rain = 0
KTH1 200448Z 02005KT M01/M07 A3036 RMK A01 T10071065  RH  065%=      5-min Rain = 0
KTH1 200449Z 03004KT M01/M07 A3036 RMK A01 T10071065  RH  065%=      5-min Rain = 0
KTH1 200450Z 02005KT M01/M07 A3036 RMK A01 T10081065  RH  065%=      5-min Rain = 0
KTH1 200451Z 02004KT M01/M07 A3036 RMK A01 T10081066  RH  065%=      5-min Rain = 0
KTH1 200452Z 02003KT M01/M07 A3036 RMK A01 T10081066  RH  065%=      5-min Rain = 0
KTH1 200453Z 02003KT M01/M07 A3036 RMK A01 T10081066  RH  065%=      5-min Rain = 0
KTH1 200454Z 02003KT M01/M07 A3036 RMK A01 T10081066  RH  065%=      5-min Rain = 0
KTH1 200455Z 03003KT M01/M07 A3036 RMK A01 T10091066  RH  065%=      5-min Rain = 0
KTH1 200456Z 02003KT M01/M07 A3036 RMK A01 T10091066  RH  065%=      5-min Rain = 0
KTH1 200457Z 03003KT M01/M07 A3036 RMK A01 T10091066  RH  065%=      5-min Rain = 0
KTH1 200458Z 04004KT M01/M07 A3036 RMK A01 T10091066  RH  066%=      5-min Rain = 0
KTH1 200459Z 03004KT M01/M07 A3037 RMK A01 T10091065  RH  066%=      5-min Rain = 0
KTH1 200500Z 04003KT M01/M07 A3037 RMK A01 T10091065  RH  066%=      5-min Rain = 0
KTH1 200501Z 04004KT M01/M07 A3036 RMK A01 T10091065  RH  066%=      5-min Rain = 0
KTH1 200502Z 04004KT M01/M07 A3036 RMK A01 T10101065  RH  066%=      5-min Rain = 0
KTH1 200503Z 04003KT M01/M07 A3037 RMK A01 T10101065  RH  066%=      5-min Rain = 0
KTH1 200504Z 04004KT M01/M07 A3037 RMK A01 T10101065  RH  066%=      5-min Rain = 0
KTH1 200505Z 04004KT M01/M07 A3037 RMK A01 T10101065  RH  066%=      5-min Rain = 0
KTH1 200506Z 04004KT M01/M07 A3037 RMK A01 T10101065  RH  066%=      5-min Rain = 0
KTH1 200507Z 04003KT M01/M07 A3038 RMK A01 T10101065  RH  066%=      5-min Rain = 0
KTH1 200508Z 04003KT M01/M07 A3037 RMK A01 T10101066  RH  066%=      5-min Rain = 0
KTH1 200509Z 04002KT M01/M07 A3037 RMK A01 T10101066  RH  066%=      5-min Rain = 0
KTH1 200510Z 05002KT M01/M07 A3037 RMK A01 T10101066  RH  066%=      5-min Rain = 0
KTH1 200511Z 05003KT M01/M07 A3037 RMK A01 T10101066  RH  066%=      5-min Rain = 0
KTH1 200512Z 05003KT M01/M07 A3038 RMK A01 T10101066  RH  066%=      5-min Rain = 0
KTH1 200513Z 05003KT M01/M07 A3038 RMK A01 T10101066  RH  066%=      5-min Rain = 0
KTH1 200514Z 05003KT M01/M07 A3038 RMK A01 T10101066  RH  066%=      5-min Rain = 0
KTH1 200515Z 05003KT M01/M07 A3038 RMK A01 T10101065  RH  066%=      5-min Rain = 0
KTH1 200516Z 03004KT M01/M07 A3037 RMK A01 T10101065  RH  066%=      5-min Rain = 0
KTH1 200517Z 04004KT M01/M07 A3037 RMK A01 T10101065  RH  067%=      5-min Rain = 0
KTH1 200518Z 04004KT M01/M07 A3037 RMK A01 T10111065  RH  067%=      5-min Rain = 0
KTH1 200519Z 04005KT M01/M07 A3037 RMK A01 T10111066  RH  067%=      5-min Rain = 0
KTH1 200520Z 04005KT M01/M07 A3037 RMK A01 T10111065  RH  067%=      5-min Rain = 0
KTH1 200521Z 04005KT M01/M07 A3037 RMK A01 T10111065  RH  067%=      5-min Rain = 0
KTH1 200522Z 03005KT M01/M07 A3037 RMK A01 T10111065  RH  067%=      5-min Rain = 0
KTH1 200523Z 03004KT M01/M07 A3037 RMK A01 T10121065  RH  067%=      5-min Rain = 0
KTH1 200524Z 04003KT M01/M07 A3037 RMK A01 T10121065  RH  067%=      5-min Rain = 0
KTH1 200525Z 03004KT M01/M07 A3037 RMK A01 T10121065  RH  067%=      5-min Rain = 0
KTH1 200526Z 04003KT M01/M07 A3037 RMK A01 T10121065  RH  067%=      5-min Rain = 0
KTH1 200527Z 03003KT M01/M07 A3037 RMK A01 T10121065  RH  067%=      5-min Rain = 0
KTH1 200528Z 03003KT M01/M07 A3037 RMK A01 T10121065  RH  067%=      5-min Rain = 0
KTH1 200529Z 03002KT M01/M07 A3037 RMK A01 T10131065  RH  067%=      5-min Rain = 0
KTH1 200530Z 03002KT M01/M07 A3037 RMK A01 T10131065  RH  068%=      5-min Rain = 0
KTH1 200531Z 04003KT M01/M07 A3037 RMK A01 T10131065  RH  068%=      5-min Rain = 0
KTH1 200532Z 04004KT M01/M07 A3037 RMK A01 T10131065  RH  067%=      5-min Rain = 0
KTH1 200533Z 04004KT M01/M07 A3037 RMK A01 T10131066  RH  067%=      5-min Rain = 0
KTH1 200534Z 05005KT M01/M07 A3037 RMK A01 T10131065  RH  068%=      5-min Rain = 0
KTH1 200535Z 05005KT M01/M06 A3037 RMK A01 T10131064  RH  068%=      5-min Rain = 0
KTH1 200536Z 05005KT M01/M06 A3037 RMK A01 T10141064  RH  068%=      5-min Rain = 0
KTH1 200537Z 06005KT M01/M06 A3036 RMK A01 T10141064  RH  069%=      5-min Rain = 0
KTH1 200538Z 06006KT M01/M06 A3036 RMK A01 T10141063  RH  069%=      5-min Rain = 0
KTH1 200539Z 06006KT M01/M06 A3036 RMK A01 T10141063  RH  070%=      5-min Rain = 0
KTH1 200540Z 06006KT M02/M06 A3036 RMK A01 T10151062  RH  070%=      5-min Rain = 0
KTH1 200541Z 06006KT M02/M06 A3036 RMK A01 T10151061  RH  071%=      5-min Rain = 0
KTH1 200542Z 06007KT M02/M06 A3036 RMK A01 T10161060  RH  072%=      5-min Rain = 0
KTH1 200543Z 06006KT M02/M06 A3036 RMK A01 T10181061  RH  072%=      5-min Rain = 0
KTH1 200544Z 06006KT M02/M06 A3036 RMK A01 T10181061  RH  072%=      5-min Rain = 0
KTH1 200545Z 06007KT M02/M06 A3036 RMK A01 T10181061  RH  073%=      5-min Rain = 0
KTH1 200546Z 05006KT M02/M06 A3036 RMK A01 T10181060  RH  073%=      5-min Rain = 0
KTH1 200547Z 05007KT M02/M06 A3036 RMK A01 T10191061  RH  073%=      5-min Rain = 0
KTH1 200548Z 06006KT M02/M06 A3036 RMK A01 T10191061  RH  073%=      5-min Rain = 0
KTH1 200549Z 05006KT M02/M06 A3036 RMK A01 T10191060  RH  074%=      5-min Rain = 0
KTH1 200550Z 05005KT M02/M06 A3036 RMK A01 T10201060  RH  074%=      5-min Rain = 0
KTH1 200551Z 05005KT M02/M06 A3036 RMK A01 T10201060  RH  074%=      5-min Rain = 0
KTH1 200552Z 05006KT M02/M06 A3036 RMK A01 T10201060  RH  074%=      5-min Rain = 0
KTH1 200553Z 06006KT M02/M06 A3036 RMK A01 T10201060  RH  074%=      5-min Rain = 0
KTH1 200554Z 05005KT M02/M06 A3036 RMK A01 T10201060  RH  074%=      5-min Rain = 0
KTH1 200555Z 06006KT M02/M06 A3036 RMK A01 T10201059  RH  075%=      5-min Rain = 0
KTH1 200556Z 05006KT M02/M06 A3036 RMK A01 T10201059  RH  075%=      5-min Rain = 0
KTH1 200557Z 05007KT M02/M06 A3036 RMK A01 T10211059  RH  075%=      5-min Rain = 0
KTH1 200558Z 06007KT M02/M06 A3036 RMK A01 T10211059  RH  075%=      5-min Rain = 0
KTH1 200559Z 05007KT M02/M06 A3036 RMK A01 T10211059  RH  075%=      5-min Rain = 0

Page generated in 0.1221 seconds.